Observation data for Guadalupe Mtns Park on 05/24/2020      Previous  Date  Next       Current Mesonet Observations  Soil Data  Daily Summary Page  Observations in Plain Language
KGU1 240500Z 26007KT 23/M08 A2997 RMK A01 T02311077  RH  012%=      5-min Rain = 0
KGU1 240501Z 26007KT 23/M08 A2997 RMK A01 T02311076  RH  012%=      5-min Rain = 0
KGU1 240502Z 25006KT 23/M08 A2997 RMK A01 T02311076  RH  012%=      5-min Rain = 0
KGU1 240503Z 26006KT 23/M08 A2997 RMK A01 T02311076  RH  012%=      5-min Rain = 0
KGU1 240504Z 27006KT 23/M08 A2997 RMK A01 T02301077  RH  012%=      5-min Rain = 0
KGU1 240505Z 27007KT 23/M08 A2997 RMK A01 T02301077  RH  012%=      5-min Rain = 0
KGU1 240506Z 28007KT 23/M08 A2997 RMK A01 T02281077  RH  012%=      5-min Rain = 0
KGU1 240507Z 25008KT 23/M08 A2997 RMK A01 T02261076  RH  013%=      5-min Rain = 0
KGU1 240508Z 24006KT 23/M08 A2997 RMK A01 T02291078  RH  012%=      5-min Rain = 0
KGU1 240509Z 26005KT 23/M08 A2997 RMK A01 T02341079  RH  012%=      5-min Rain = 0
KGU1 240510Z 27005KT 24/M08 A2997 RMK A01 T02361078  RH  012%=      5-min Rain = 0
KGU1 240511Z 28007KT 23/M08 A2997 RMK A01 T02331076  RH  012%=      5-min Rain = 0
KGU1 240512Z 27007KT 23/M08 A2997 RMK A01 T02311077  RH  012%=      5-min Rain = 0
KGU1 240513Z 27006KT 23/M08 A2997 RMK A01 T02311077  RH  012%=      5-min Rain = 0
KGU1 240514Z 27007KT 23/M08 A2997 RMK A01 T02301076  RH  012%=      5-min Rain = 0
KGU1 240515Z 26007KT 23/M08 A2997 RMK A01 T02271076  RH  013%=      5-min Rain = 0
KGU1 240516Z 25007KT 23/M08 A2997 RMK A01 T02271077  RH  012%=      5-min Rain = 0
KGU1 240517Z 26006KT 23/M08 A2997 RMK A01 T02301077  RH  012%=      5-min Rain = 0
KGU1 240518Z 26005KT 23/M08 A2997 RMK A01 T02311077  RH  012%=      5-min Rain = 0
KGU1 240519Z 26005KT 23/M08 A2997 RMK A01 T02291076  RH  012%=      5-min Rain = 0
KGU1 240520Z 26004KT 23/M08 A2997 RMK A01 T02261077  RH  012%=      5-min Rain = 0
KGU1 240521Z 28007KT 22/M08 A2997 RMK A01 T02241076  RH  013%=      5-min Rain = 0
KGU1 240522Z 28006KT 22/M08 A2997 RMK A01 T02221077  RH  013%=      5-min Rain = 0
KGU1 240523Z 26006KT 22/M08 A2997 RMK A01 T02241077  RH  013%=      5-min Rain = 0
KGU1 240524Z 27007KT 23/M08 A2997 RMK A01 T02251077  RH  013%=      5-min Rain = 0
KGU1 240525Z 26007KT 23/M08 A2997 RMK A01 T02261077  RH  013%=      5-min Rain = 0
KGU1 240526Z 24008KT 23/M08 A2997 RMK A01 T02251077  RH  013%=      5-min Rain = 0
KGU1 240527Z 25008KT 23/M08 A2997 RMK A01 T02291078  RH  012%=      5-min Rain = 0
KGU1 240528Z 24007KT 23/M08 A2997 RMK A01 T02331078  RH  012%=      5-min Rain = 0
KGU1 240529Z 24006KT 24/M08 A2997 RMK A01 T02351078  RH  012%=      5-min Rain = 0
KGU1 240530Z 25007KT 24/M08 A2997 RMK A01 T02361078  RH  012%=      5-min Rain = 0
KGU1 240531Z 27005KT 24/M08 A2997 RMK A01 T02371078  RH  012%=      5-min Rain = 0
KGU1 240532Z 27006KT 24/M08 A2997 RMK A01 T02351077  RH  012%=      5-min Rain = 0
KGU1 240533Z 27005KT 23/M08 A2997 RMK A01 T02311076  RH  012%=      5-min Rain = 0
KGU1 240534Z 27005KT 23/M08 A2997 RMK A01 T02281076  RH  012%=      5-min Rain = 0
KGU1 240535Z 26005KT 23/M08 A2997 RMK A01 T02251076  RH  013%=      5-min Rain = 0
KGU1 240536Z 27006KT 22/M08 A2997 RMK A01 T02221077  RH  013%=      5-min Rain = 0
KGU1 240537Z 28006KT 22/M08 A2997 RMK A01 T02201077  RH  013%=      5-min Rain = 0
KGU1 240538Z 27006KT 22/M08 A2997 RMK A01 T02201077  RH  013%=      5-min Rain = 0
KGU1 240539Z 28005KT 23/M08 A2997 RMK A01 T02261077  RH  013%=      5-min Rain = 0
KGU1 240540Z 29006KT 23/M08 A2997 RMK A01 T02261076  RH  013%=      5-min Rain = 0
KGU1 240541Z 29007KT 22/M08 A2997 RMK A01 T02211076  RH  013%=      5-min Rain = 0
KGU1 240542Z 29009KT 21/M08 A2998 RMK A01 T02141076  RH  014%=      5-min Rain = 0
KGU1 240543Z 27009KT 21/M08 A2997 RMK A01 T02131077  RH  014%=      5-min Rain = 0
KGU1 240544Z 27008KT 21/M08 A2997 RMK A01 T02121076  RH  014%=      5-min Rain = 0
KGU1 240545Z 28009KT 21/M08 A2998 RMK A01 T02101077  RH  014%=      5-min Rain = 0
KGU1 240546Z 28010KT 21/M08 A2998 RMK A01 T02081077  RH  014%=      5-min Rain = 0
KGU1 240547Z 28011KT 21/M08 A2997 RMK A01 T02131077  RH  014%=      5-min Rain = 0
KGU1 240548Z 28007KT 22/M08 A2997 RMK A01 T02181077  RH  013%=      5-min Rain = 0
KGU1 240549Z 29007KT 22/M08 A2998 RMK A01 T02191076  RH  013%=      5-min Rain = 0
KGU1 240550Z 30007KT 22/M08 A2998 RMK A01 T02161075  RH  013%=      5-min Rain = 0
KGU1 240551Z 27008KT 21/M08 A2998 RMK A01 T02131076  RH  014%=      5-min Rain = 0
KGU1 240552Z 27007KT 21/M08 A2998 RMK A01 T02121077  RH  014%=      5-min Rain = 0
KGU1 240553Z 28011KT 21/M08 A2998 RMK A01 T02141077  RH  013%=      5-min Rain = 0
KGU1 240554Z 28008KT 22/M08 A2998 RMK A01 T02171076  RH  013%=      5-min Rain = 0
KGU1 240555Z 30008KT 22/M08 A2998 RMK A01 T02171076  RH  013%=      5-min Rain = 0
KGU1 240556Z 29007KT 22/M08 A2998 RMK A01 T02151076  RH  013%=      5-min Rain = 0
KGU1 240557Z 31006KT 22/M08 A2998 RMK A01 T02151076  RH  014%=      5-min Rain = 0
KGU1 240558Z 29007KT 21/M08 A2998 RMK A01 T02141076  RH  014%=      5-min Rain = 0
KGU1 240559Z 28008KT 21/M08 A2998 RMK A01 T02131077  RH  014%=      5-min Rain = 0
KGU1 240600Z 29008KT 21/M08 A2998 RMK A01 T02131077  RH  014%=      5-min Rain = 0
KGU1 240601Z 29007KT 21/M08 A2998 RMK A01 T02141076  RH  013%=      5-min Rain = 0
KGU1 240602Z 29008KT 21/M08 A2998 RMK A01 T02131077  RH  014%=      5-min Rain = 0
KGU1 240603Z 29008KT 21/M08 A2998 RMK A01 T02121077  RH  014%=      5-min Rain = 0
KGU1 240604Z 29009KT 21/M08 A2998 RMK A01 T02131077  RH  014%=      5-min Rain = 0
KGU1 240605Z 29008KT 22/M08 A2998 RMK A01 T02151077  RH  013%=      5-min Rain = 0
KGU1 240606Z 28007KT 22/M08 A2998 RMK A01 T02151076  RH  013%=      5-min Rain = 0
KGU1 240607Z 28008KT 22/M08 A2998 RMK A01 T02151076  RH  013%=      5-min Rain = 0
KGU1 240608Z 28007KT 22/M08 A2998 RMK A01 T02151076  RH  014%=      5-min Rain = 0
KGU1 240609Z 28007KT 21/M08 A2998 RMK A01 T02141076  RH  014%=      5-min Rain = 0
KGU1 240610Z 28007KT 21/M08 A2998 RMK A01 T02111076  RH  014%=      5-min Rain = 0
KGU1 240611Z 28008KT 21/M08 A2998 RMK A01 T02091077  RH  014%=      5-min Rain = 0
KGU1 240612Z 28008KT 21/M08 A2998 RMK A01 T02091077  RH  014%=      5-min Rain = 0
KGU1 240613Z 28008KT 21/M08 A2998 RMK A01 T02091077  RH  014%=      5-min Rain = 0
KGU1 240614Z 29008KT 21/M08 A2998 RMK A01 T02101077  RH  014%=      5-min Rain = 0
KGU1 240615Z 28009KT 21/M08 A2998 RMK A01 T02091077  RH  014%=      5-min Rain = 0
KGU1 240616Z 28009KT 21/M08 A2998 RMK A01 T02101077  RH  014%=      5-min Rain = 0
KGU1 240617Z 28008KT 21/M08 A2998 RMK A01 T02121076  RH  014%=      5-min Rain = 0
KGU1 240618Z 29007KT 21/M08 A2998 RMK A01 T02131076  RH  014%=      5-min Rain = 0
KGU1 240619Z 29009KT 21/M08 A2998 RMK A01 T02141077  RH  013%=      5-min Rain = 0
KGU1 240620Z 29009KT 22/M08 A2998 RMK A01 T02151077  RH  013%=      5-min Rain = 0
KGU1 240621Z 28009KT 22/M08 A2998 RMK A01 T02151076  RH  013%=      5-min Rain = 0
KGU1 240622Z 28009KT 22/M08 A2998 RMK A01 T02161076  RH  013%=      5-min Rain = 0
KGU1 240623Z 28008KT 22/M08 A2998 RMK A01 T02181075  RH  013%=      5-min Rain = 0
KGU1 240624Z 29008KT 22/M08 A2998 RMK A01 T02181076  RH  013%=      5-min Rain = 0
KGU1 240625Z 29008KT 22/M08 A2998 RMK A01 T02161076  RH  013%=      5-min Rain = 0
KGU1 240626Z 29007KT 21/M08 A2998 RMK A01 T02131077  RH  014%=      5-min Rain = 0
KGU1 240627Z 29008KT 21/M08 A2998 RMK A01 T02111076  RH  014%=      5-min Rain = 0
KGU1 240628Z 29008KT 21/M08 A2998 RMK A01 T02111076  RH  014%=      5-min Rain = 0
KGU1 240629Z 29008KT 21/M08 A2998 RMK A01 T02111076  RH  014%=      5-min Rain = 0
KGU1 240630Z 29008KT 21/M08 A2998 RMK A01 T02111076  RH  014%=      5-min Rain = 0
KGU1 240631Z 29008KT 21/M08 A2998 RMK A01 T02111076  RH  014%=      5-min Rain = 0
KGU1 240632Z 28009KT 21/M08 A2998 RMK A01 T02121075  RH  014%=      5-min Rain = 0
KGU1 240633Z 28008KT 21/M08 A2998 RMK A01 T02111075  RH  014%=      5-min Rain = 0
KGU1 240634Z 29008KT 21/M08 A2998 RMK A01 T02101075  RH  014%=      5-min Rain = 0
KGU1 240635Z 30008KT 21/M08 A2998 RMK A01 T02101075  RH  014%=      5-min Rain = 0
KGU1 240636Z 30008KT 21/M08 A2998 RMK A01 T02121075  RH  014%=      5-min Rain = 0
KGU1 240637Z 29009KT 21/M07 A2998 RMK A01 T02131074  RH  014%=      5-min Rain = 0
KGU1 240638Z 29009KT 21/M07 A2998 RMK A01 T02131074  RH  014%=      5-min Rain = 0
KGU1 240639Z 31008KT 21/M07 A2998 RMK A01 T02141073  RH  014%=      5-min Rain = 0
KGU1 240640Z 31010KT 22/M07 A2998 RMK A01 T02151072  RH  014%=      5-min Rain = 0
KGU1 240641Z 30011KT 22/M07 A2998 RMK A01 T02181071  RH  014%=      5-min Rain = 0
KGU1 240642Z 30010KT 22/M07 A2998 RMK A01 T02211071  RH  014%=      5-min Rain = 0
KGU1 240643Z 29007KT 22/M07 A2998 RMK A01 T02211072  RH  013%=      5-min Rain = 0
KGU1 240644Z 29007KT 22/M07 A2998 RMK A01 T02191071  RH  014%=      5-min Rain = 0
KGU1 240645Z 28007KT 22/M07 A2998 RMK A01 T02161071  RH  014%=      5-min Rain = 0
KGU1 240646Z 28007KT 21/M07 A2998 RMK A01 T02131072  RH  014%=      5-min Rain = 0
KGU1 240647Z 29008KT 21/M07 A2998 RMK A01 T02111072  RH  014%=      5-min Rain = 0
KGU1 240648Z 29006KT 21/M07 A2998 RMK A01 T02121073  RH  014%=      5-min Rain = 0
KGU1 240649Z 29007KT 21/M07 A2999 RMK A01 T02111072  RH  014%=      5-min Rain = 0
KGU1 240650Z 29008KT 21/M07 A2999 RMK A01 T02091072  RH  014%=      5-min Rain = 0
KGU1 240651Z 29008KT 21/M07 A2999 RMK A01 T02091071  RH  014%=      5-min Rain = 0
KGU1 240652Z 29006KT 21/M07 A2999 RMK A01 T02091072  RH  015%=      5-min Rain = 0
KGU1 240653Z 29006KT 21/M07 A2999 RMK A01 T02071072  RH  015%=      5-min Rain = 0
KGU1 240654Z 31008KT 21/M07 A2999 RMK A01 T02071071  RH  015%=      5-min Rain = 0
KGU1 240655Z 30009KT 21/M07 A2998 RMK A01 T02071070  RH  015%=      5-min Rain = 0
KGU1 240656Z 30008KT 21/M07 A2998 RMK A01 T02071071  RH  015%=      5-min Rain = 0
KGU1 240657Z 29008KT 21/M07 A2998 RMK A01 T02081070  RH  015%=      5-min Rain = 0
KGU1 240658Z 29008KT 21/M07 A2998 RMK A01 T02101070  RH  015%=      5-min Rain = 0
KGU1 240659Z 29008KT 21/M07 A2998 RMK A01 T02081070  RH  015%=      5-min Rain = 0
KGU1 240700Z 28008KT 21/M07 A2998 RMK A01 T02081070  RH  015%=      5-min Rain = 0
KGU1 240701Z 29007KT 21/M07 A2998 RMK A01 T02081070  RH  015%=      5-min Rain = 0
KGU1 240702Z 28007KT 21/M07 A2998 RMK A01 T02061070  RH  015%=      5-min Rain = 0
KGU1 240703Z 29009KT 21/M07 A2998 RMK A01 T02051070  RH  015%=      5-min Rain = 0
KGU1 240704Z 30009KT 21/M07 A2998 RMK A01 T02081068  RH  015%=      5-min Rain = 0
KGU1 240705Z 30008KT 21/M07 A2998 RMK A01 T02101066  RH  015%=      5-min Rain = 0
KGU1 240706Z 31009KT 21/M07 A2998 RMK A01 T02111065  RH  015%=      5-min Rain = 0
KGU1 240707Z 28007KT 21/M07 A2998 RMK A01 T02131065  RH  015%=      5-min Rain = 0
KGU1 240708Z 28007KT 21/M07 A2998 RMK A01 T02111067  RH  015%=      5-min Rain = 0
KGU1 240709Z 28006KT 21/M07 A2998 RMK A01 T02071068  RH  015%=      5-min Rain = 0
KGU1 240710Z 28007KT 20/M07 A2998 RMK A01 T02041069  RH  015%=      5-min Rain = 0
KGU1 240711Z 29006KT 20/M07 A2998 RMK A01 T02041068  RH  015%=      5-min Rain = 0
KGU1 240712Z 29008KT 20/M07 A2998 RMK A01 T02041067  RH  015%=      5-min Rain = 0
KGU1 240713Z 29008KT 20/M07 A2998 RMK A01 T02041067  RH  015%=      5-min Rain = 0
KGU1 240714Z 29007KT 21/M07 A2998 RMK A01 T02051067  RH  015%=      5-min Rain = 0
KGU1 240715Z 28006KT 21/M07 A2998 RMK A01 T02061066  RH  015%=      5-min Rain = 0
KGU1 240716Z 29009KT 21/M07 A2998 RMK A01 T02061066  RH  015%=      5-min Rain = 0
KGU1 240717Z 28009KT 21/M06 A2998 RMK A01 T02091063  RH  015%=      5-min Rain = 0
KGU1 240718Z 28007KT 21/M06 A2998 RMK A01 T02091064  RH  015%=      5-min Rain = 0
KGU1 240719Z 27007KT 21/M07 A2998 RMK A01 T02071065  RH  015%=      5-min Rain = 0
KGU1 240720Z 28007KT 21/M07 A2998 RMK A01 T02061066  RH  015%=      5-min Rain = 0
KGU1 240721Z 28007KT 21/M07 A2998 RMK A01 T02051065  RH  016%=      5-min Rain = 0
KGU1 240722Z 28008KT 20/M07 A2998 RMK A01 T02041065  RH  016%=      5-min Rain = 0
KGU1 240723Z 27008KT 20/M07 A2998 RMK A01 T02031065  RH  016%=      5-min Rain = 0
KGU1 240724Z 28009KT 20/M07 A2998 RMK A01 T02021065  RH  016%=      5-min Rain = 0
KGU1 240725Z 28009KT 20/M07 A2998 RMK A01 T02021065  RH  016%=      5-min Rain = 0
KGU1 240726Z 28008KT 20/M07 A2998 RMK A01 T02011065  RH  016%=      5-min Rain = 0
KGU1 240727Z 28008KT 20/M06 A2998 RMK A01 T01991064  RH  016%=      5-min Rain = 0
KGU1 240728Z 28008KT 20/M06 A2998 RMK A01 T01991063  RH  016%=      5-min Rain = 0
KGU1 240729Z 28006KT 20/M06 A2998 RMK A01 T01991063  RH  017%=      5-min Rain = 0
KGU1 240730Z 28008KT 20/M06 A2998 RMK A01 T01981063  RH  017%=      5-min Rain = 0
KGU1 240731Z 28008KT 20/M06 A2998 RMK A01 T01981063  RH  017%=      5-min Rain = 0
KGU1 240732Z 28008KT 20/M06 A2998 RMK A01 T01991063  RH  016%=      5-min Rain = 0
KGU1 240733Z 28008KT 20/M06 A2998 RMK A01 T01991063  RH  016%=      5-min Rain = 0
KGU1 240734Z 28008KT 20/M06 A2998 RMK A01 T01981063  RH  016%=      5-min Rain = 0
KGU1 240735Z 28008KT 20/M06 A2998 RMK A01 T01981062  RH  017%=      5-min Rain = 0
KGU1 240736Z 28009KT 20/M06 A2998 RMK A01 T01981062  RH  017%=      5-min Rain = 0
KGU1 240737Z 28009KT 20/M06 A2998 RMK A01 T01981061  RH  017%=      5-min Rain = 0
KGU1 240738Z 28008KT 20/M06 A2998 RMK A01 T01991060  RH  017%=      5-min Rain = 0
KGU1 240739Z 28008KT 20/M06 A2998 RMK A01 T02011059  RH  017%=      5-min Rain = 0
KGU1 240740Z 27008KT 20/M06 A2998 RMK A01 T02021059  RH  017%=      5-min Rain = 0
KGU1 240741Z 28009KT 20/M06 A2998 RMK A01 T02021059  RH  017%=      5-min Rain = 0
KGU1 240742Z 27008KT 20/M06 A2998 RMK A01 T02031058  RH  017%=      5-min Rain = 0
KGU1 240743Z 28007KT 20/M06 A2998 RMK A01 T02041058  RH  017%=      5-min Rain = 0
KGU1 240744Z 28009KT 20/M06 A2998 RMK A01 T02041058  RH  017%=      5-min Rain = 0
KGU1 240745Z 27007KT 20/M06 A2998 RMK A01 T02041058  RH  017%=      5-min Rain = 0
KGU1 240746Z 27008KT 20/M06 A2998 RMK A01 T02031058  RH  017%=      5-min Rain = 0
KGU1 240747Z 28010KT 20/M06 A2998 RMK A01 T02031058  RH  017%=      5-min Rain = 0
KGU1 240748Z 29009KT 20/M06 A2998 RMK A01 T02041057  RH  017%=      5-min Rain = 0
KGU1 240749Z 29007KT 21/M06 A2998 RMK A01 T02051057  RH  017%=      5-min Rain = 0
KGU1 240750Z 27007KT 20/M06 A2998 RMK A01 T02031057  RH  017%=      5-min Rain = 0
KGU1 240751Z 28008KT 20/M06 A2998 RMK A01 T02041056  RH  017%=      5-min Rain = 0
KGU1 240752Z 28010KT 21/M06 A2998 RMK A01 T02051055  RH  017%=      5-min Rain = 0
KGU1 240753Z 28008KT 21/M06 A2998 RMK A01 T02061055  RH  017%=      5-min Rain = 0
KGU1 240754Z 28011G17KT 21/M06 A2998 RMK A01 T02051055  RH  017%=      5-min Rain = 0
KGU1 240755Z 29010KT 21/M05 A2997 RMK A01 T02081051  RH  017%=      5-min Rain = 0
KGU1 240756Z 31010KT 21/M05 A2998 RMK A01 T02121052  RH  017%=      5-min Rain = 0
KGU1 240757Z 32010KT 21/M05 A2998 RMK A01 T02121051  RH  017%=      5-min Rain = 0
KGU1 240758Z 30012KT 21/M05 A2998 RMK A01 T02141050  RH  017%=      5-min Rain = 0
KGU1 240759Z 29010KT 21/M05 A2998 RMK A01 T02141050  RH  017%=      5-min Rain = 0
KGU1 240800Z 28010KT 21/M05 A2998 RMK A01 T02121051  RH  017%=      5-min Rain = 0
KGU1 240801Z 28008KT 21/M05 A2998 RMK A01 T02121051  RH  017%=      5-min Rain = 0
KGU1 240802Z 28008KT 21/M05 A2998 RMK A01 T02111052  RH  017%=      5-min Rain = 0
KGU1 240803Z 28008KT 21/M05 A2998 RMK A01 T02101052  RH  017%=      5-min Rain = 0
KGU1 240804Z 28008KT 21/M05 A2998 RMK A01 T02081052  RH  017%=      5-min Rain = 0
KGU1 240805Z 29008KT 21/M05 A2998 RMK A01 T02061052  RH  017%=      5-min Rain = 0
KGU1 240806Z 28008KT 21/M05 A2997 RMK A01 T02071052  RH  017%=      5-min Rain = 0
KGU1 240807Z 28008KT 21/M05 A2997 RMK A01 T02061052  RH  017%=      5-min Rain = 0
KGU1 240808Z 30011KT 21/M05 A2997 RMK A01 T02051050  RH  018%=      5-min Rain = 0
KGU1 240809Z 29010KT 21/M05 A2997 RMK A01 T02091049  RH  017%=      5-min Rain = 0
KGU1 240810Z 28009KT 21/M05 A2997 RMK A01 T02091049  RH  017%=      5-min Rain = 0
KGU1 240811Z 27008KT 21/M05 A2997 RMK A01 T02081050  RH  017%=      5-min Rain = 0
KGU1 240812Z 28008KT 21/M05 A2997 RMK A01 T02051050  RH  018%=      5-min Rain = 0
KGU1 240813Z 28008KT 20/M05 A2997 RMK A01 T02041050  RH  018%=      5-min Rain = 0
KGU1 240814Z 27007KT 21/M05 A2997 RMK A01 T02051050  RH  018%=      5-min Rain = 0
KGU1 240815Z 27009KT 20/M05 A2997 RMK A01 T02041050  RH  018%=      5-min Rain = 0
KGU1 240816Z 27010KT 20/M05 A2997 RMK A01 T02041049  RH  018%=      5-min Rain = 0
KGU1 240817Z 28011KT 21/M05 A2997 RMK A01 T02061049  RH  018%=      5-min Rain = 0
KGU1 240818Z 27010KT 21/M05 A2997 RMK A01 T02081049  RH  017%=      5-min Rain = 0
KGU1 240819Z 29012KT 21/M05 A2997 RMK A01 T02091048  RH  017%=      5-min Rain = 0
KGU1 240820Z 28012KT 21/M05 A2997 RMK A01 T02111048  RH  017%=      5-min Rain = 0
KGU1 240821Z 27013KT 21/M05 A2997 RMK A01 T02111048  RH  017%=      5-min Rain = 0
KGU1 240822Z 29012KT 21/M05 A2997 RMK A01 T02121048  RH  017%=      5-min Rain = 0
KGU1 240823Z 27011KT 21/M05 A2997 RMK A01 T02141049  RH  017%=      5-min Rain = 0
KGU1 240824Z 27011KT 21/M05 A2997 RMK A01 T02131048  RH  017%=      5-min Rain = 0
KGU1 240825Z 28011KT 21/M05 A2997 RMK A01 T02141049  RH  017%=      5-min Rain = 0
KGU1 240826Z 29010KT 21/M05 A2997 RMK A01 T02131049  RH  017%=      5-min Rain = 0
KGU1 240827Z 28012KT 21/M05 A2997 RMK A01 T02121048  RH  017%=      5-min Rain = 0
KGU1 240828Z 28009KT 21/M05 A2997 RMK A01 T02111048  RH  017%=      5-min Rain = 0
KGU1 240829Z 28011G16KT 21/M05 A2997 RMK A01 T02091049  RH  017%=      5-min Rain = 0
KGU1 240830Z 28014KT 21/M05 A2997 RMK A01 T02091050  RH  017%=      5-min Rain = 0
KGU1 240831Z 27010KT 21/M05 A2997 RMK A01 T02101051  RH  017%=      5-min Rain = 0
KGU1 240832Z 27011KT 21/M05 A2997 RMK A01 T02091050  RH  017%=      5-min Rain = 0
KGU1 240833Z 27011KT 21/M05 A2997 RMK A01 T02101051  RH  017%=      5-min Rain = 0
KGU1 240834Z 27010KT 21/M05 A2997 RMK A01 T02091051  RH  017%=      5-min Rain = 0
KGU1 240835Z 28012KT 21/M05 A2997 RMK A01 T02081051  RH  017%=      5-min Rain = 0
KGU1 240836Z 28013KT 21/M05 A2997 RMK A01 T02091051  RH  017%=      5-min Rain = 0
KGU1 240837Z 27010KT 21/M05 A2997 RMK A01 T02101051  RH  017%=      5-min Rain = 0
KGU1 240838Z 28012KT 21/M05 A2997 RMK A01 T02101051  RH  017%=      5-min Rain = 0
KGU1 240839Z 28011KT 21/M05 A2997 RMK A01 T02091051  RH  017%=      5-min Rain = 0
KGU1 240840Z 28011KT 21/M05 A2997 RMK A01 T02091052  RH  017%=      5-min Rain = 0
KGU1 240841Z 28011KT 21/M05 A2996 RMK A01 T02091051  RH  017%=      5-min Rain = 0
KGU1 240842Z 28010KT 21/M05 A2997 RMK A01 T02091051  RH  017%=      5-min Rain = 0
KGU1 240843Z 28010KT 21/M05 A2996 RMK A01 T02081052  RH  017%=      5-min Rain = 0
KGU1 240844Z 28010KT 21/M05 A2996 RMK A01 T02081052  RH  017%=      5-min Rain = 0
KGU1 240845Z 28009KT 21/M05 A2996 RMK A01 T02081052  RH  017%=      5-min Rain = 0
KGU1 240846Z 28010KT 21/M05 A2996 RMK A01 T02081052  RH  017%=      5-min Rain = 0
KGU1 240847Z 28010KT 21/M05 A2996 RMK A01 T02071052  RH  017%=      5-min Rain = 0
KGU1 240848Z 28009KT 21/M05 A2996 RMK A01 T02071052  RH  017%=      5-min Rain = 0
KGU1 240849Z 29010KT 21/M05 A2996 RMK A01 T02061052  RH  017%=      5-min Rain = 0
KGU1 240850Z 29011KT 21/M05 A2996 RMK A01 T02051052  RH  017%=      5-min Rain = 0
KGU1 240851Z 29012KT 21/M05 A2996 RMK A01 T02051053  RH  017%=      5-min Rain = 0
KGU1 240852Z 29011KT 21/M05 A2996 RMK A01 T02071053  RH  017%=      5-min Rain = 0
KGU1 240853Z 29010KT 21/M05 A2996 RMK A01 T02071053  RH  017%=      5-min Rain = 0
KGU1 240854Z 28012KT 21/M05 A2996 RMK A01 T02071053  RH  017%=      5-min Rain = 0
KGU1 240855Z 28012KT 21/M05 A2996 RMK A01 T02071053  RH  017%=      5-min Rain = 0
KGU1 240856Z 29011KT 21/M05 A2996 RMK A01 T02071053  RH  017%=      5-min Rain = 0
KGU1 240857Z 28011KT 21/M05 A2996 RMK A01 T02071053  RH  017%=      5-min Rain = 0
KGU1 240858Z 29012KT 21/M05 A2996 RMK A01 T02071053  RH  017%=      5-min Rain = 0
KGU1 240859Z 29012KT 21/M05 A2996 RMK A01 T02071053  RH  017%=      5-min Rain = 0
KGU1 240900Z 28012KT 21/M05 A2996 RMK A01 T02071053  RH  017%=      5-min Rain = 0
KGU1 240901Z 29012KT 21/M05 A2996 RMK A01 T02081054  RH  017%=      5-min Rain = 0
KGU1 240902Z 29010KT 21/M05 A2996 RMK A01 T02081054  RH  017%=      5-min Rain = 0
KGU1 240903Z 28010KT 21/M05 A2996 RMK A01 T02071054  RH  017%=      5-min Rain = 0
KGU1 240904Z 28011KT 21/M05 A2996 RMK A01 T02061054  RH  017%=      5-min Rain = 0
KGU1 240905Z 29011KT 21/M05 A2996 RMK A01 T02071054  RH  017%=      5-min Rain = 0
KGU1 240906Z 28011KT 21/M05 A2996 RMK A01 T02071054  RH  017%=      5-min Rain = 0
KGU1 240907Z 28010KT 21/M05 A2996 RMK A01 T02071054  RH  017%=      5-min Rain = 0
KGU1 240908Z 28011KT 21/M05 A2996 RMK A01 T02061053  RH  017%=      5-min Rain = 0
KGU1 240909Z 29011KT 21/M05 A2996 RMK A01 T02061053  RH  017%=      5-min Rain = 0
KGU1 240910Z 29012KT 21/M05 A2996 RMK A01 T02071054  RH  017%=      5-min Rain = 0
KGU1 240911Z 28010KT 21/M05 A2996 RMK A01 T02071054  RH  017%=      5-min Rain = 0
KGU1 240912Z 28010KT 21/M05 A2996 RMK A01 T02071054  RH  017%=      5-min Rain = 0
KGU1 240913Z 28009KT 21/M05 A2996 RMK A01 T02061054  RH  017%=      5-min Rain = 0
KGU1 240914Z 28009KT 21/M05 A2996 RMK A01 T02051054  RH  017%=      5-min Rain = 0
KGU1 240915Z 29009KT 20/M05 A2996 RMK A01 T02041054  RH  017%=      5-min Rain = 0
KGU1 240916Z 30010KT 20/M05 A2996 RMK A01 T02041054  RH  017%=      5-min Rain = 0
KGU1 240917Z 29009KT 21/M05 A2996 RMK A01 T02051054  RH  017%=      5-min Rain = 0
KGU1 240918Z 29008KT 20/M05 A2996 RMK A01 T02041054  RH  017%=      5-min Rain = 0
KGU1 240919Z 29008KT 20/M05 A2996 RMK A01 T02031054  RH  017%=      5-min Rain = 0
KGU1 240920Z 29008KT 20/M05 A2996 RMK A01 T02031054  RH  017%=      5-min Rain = 0
KGU1 240921Z 29009KT 20/M06 A2996 RMK A01 T02031055  RH  017%=      5-min Rain = 0
KGU1 240922Z 28008KT 20/M05 A2996 RMK A01 T02031054  RH  017%=      5-min Rain = 0
KGU1 240923Z 28011KT 21/M06 A2996 RMK A01 T02051055  RH  017%=      5-min Rain = 0
KGU1 240924Z 28008KT 21/M05 A2996 RMK A01 T02071054  RH  017%=      5-min Rain = 0
KGU1 240925Z 28007KT 21/M05 A2996 RMK A01 T02061054  RH  017%=      5-min Rain = 0
KGU1 240926Z 27008KT 21/M05 A2996 RMK A01 T02051054  RH  017%=      5-min Rain = 0
KGU1 240927Z 27011KT 20/M06 A2996 RMK A01 T02041055  RH  017%=      5-min Rain = 0
KGU1 240928Z 27010KT 21/M06 A2996 RMK A01 T02071055  RH  017%=      5-min Rain = 0
KGU1 240929Z 27010KT 21/M06 A2996 RMK A01 T02081055  RH  016%=      5-min Rain = 0
KGU1 240930Z 28013KT 21/M06 A2996 RMK A01 T02091056  RH  016%=      5-min Rain = 0
KGU1 240931Z 27008KT 21/M06 A2996 RMK A01 T02091056  RH  016%=      5-min Rain = 0
KGU1 240932Z 27008KT 21/M06 A2996 RMK A01 T02091056  RH  016%=      5-min Rain = 0
KGU1 240933Z 27011KT 21/M06 A2996 RMK A01 T02091056  RH  016%=      5-min Rain = 0
KGU1 240934Z 28010KT 21/M06 A2996 RMK A01 T02091056  RH  016%=      5-min Rain = 0
KGU1 240935Z 26011KT 21/M06 A2996 RMK A01 T02081056  RH  016%=      5-min Rain = 0
KGU1 240936Z 25011KT 21/M06 A2996 RMK A01 T02101057  RH  016%=      5-min Rain = 0
KGU1 240937Z 27010G15KT 21/M06 A2996 RMK A01 T02121057  RH  016%=      5-min Rain = 0
KGU1 240938Z 26008KT 21/M06 A2996 RMK A01 T02141057  RH  016%=      5-min Rain = 0
KGU1 240939Z 28008KT 21/M06 A2996 RMK A01 T02131057  RH  016%=      5-min Rain = 0
KGU1 240940Z 28008KT 21/M06 A2996 RMK A01 T02111057  RH  016%=      5-min Rain = 0
KGU1 240941Z 27008KT 21/M06 A2996 RMK A01 T02101056  RH  016%=      5-min Rain = 0
KGU1 240942Z 28008KT 21/M06 A2997 RMK A01 T02091057  RH  016%=      5-min Rain = 0
KGU1 240943Z 28009KT 21/M06 A2997 RMK A01 T02071057  RH  016%=      5-min Rain = 0
KGU1 240944Z 27008KT 21/M06 A2997 RMK A01 T02081057  RH  016%=      5-min Rain = 0
KGU1 240945Z 26007KT 21/M06 A2997 RMK A01 T02081057  RH  016%=      5-min Rain = 0
KGU1 240946Z 28006KT 21/M06 A2997 RMK A01 T02091057  RH  016%=      5-min Rain = 0
KGU1 240947Z 27008KT 21/M06 A2997 RMK A01 T02071058  RH  016%=      5-min Rain = 0
KGU1 240948Z 27008KT 21/M06 A2997 RMK A01 T02061058  RH  016%=      5-min Rain = 0
KGU1 240949Z 28009KT 21/M06 A2997 RMK A01 T02051058  RH  016%=      5-min Rain = 0
KGU1 240950Z 26010KT 21/M06 A2996 RMK A01 T02061058  RH  016%=      5-min Rain = 0
KGU1 240951Z 27010KT 21/M06 A2996 RMK A01 T02071059  RH  016%=      5-min Rain = 0
KGU1 240952Z 27009KT 21/M06 A2997 RMK A01 T02071059  RH  016%=      5-min Rain = 0
KGU1 240953Z 28012KT 21/M06 A2997 RMK A01 T02061059  RH  016%=      5-min Rain = 0
KGU1 240954Z 27010KT 21/M06 A2997 RMK A01 T02071059  RH  016%=      5-min Rain = 0
KGU1 240955Z 27010KT 21/M06 A2997 RMK A01 T02091059  RH  016%=      5-min Rain = 0
KGU1 240956Z 27008KT 21/M06 A2997 RMK A01 T02101059  RH  016%=      5-min Rain = 0
KGU1 240957Z 27009KT 21/M06 A2997 RMK A01 T02091059  RH  016%=      5-min Rain = 0
KGU1 240958Z 28010KT 21/M06 A2997 RMK A01 T02091059  RH  016%=      5-min Rain = 0
KGU1 240959Z 28009KT 21/M06 A2997 RMK A01 T02091059  RH  016%=      5-min Rain = 0
KGU1 241000Z 28009KT 21/M06 A2997 RMK A01 T02081059  RH  016%=      5-min Rain = 0
KGU1 241001Z 27008KT 21/M06 A2997 RMK A01 T02071059  RH  016%=      5-min Rain = 0
KGU1 241002Z 24008KT 21/M06 A2997 RMK A01 T02051058  RH  016%=      5-min Rain = 0
KGU1 241003Z 25007KT 21/M06 A2997 RMK A01 T02061058  RH  016%=      5-min Rain = 0
KGU1 241004Z 27006KT 21/M06 A2997 RMK A01 T02071058  RH  016%=      5-min Rain = 0
KGU1 241005Z 25006KT 21/M06 A2997 RMK A01 T02061059  RH  016%=      5-min Rain = 0
KGU1 241006Z 25006KT 21/M06 A2997 RMK A01 T02071058  RH  016%=      5-min Rain = 0
KGU1 241007Z 24006KT 21/M06 A2997 RMK A01 T02051057  RH  017%=      5-min Rain = 0
KGU1 241008Z 25005KT 20/M06 A2997 RMK A01 T02041057  RH  017%=      5-min Rain = 0
KGU1 241009Z 27007KT 20/M06 A2997 RMK A01 T02031058  RH  017%=      5-min Rain = 0
KGU1 241010Z 28006KT 20/M06 A2997 RMK A01 T02021059  RH  017%=      5-min Rain = 0
KGU1 241011Z 27006KT 20/M06 A2997 RMK A01 T02001059  RH  017%=      5-min Rain = 0
KGU1 241012Z 26007KT 20/M06 A2997 RMK A01 T01971059  RH  017%=      5-min Rain = 0
KGU1 241013Z 25007KT 20/M06 A2997 RMK A01 T01961058  RH  017%=      5-min Rain = 0
KGU1 241014Z 25006KT 20/M06 A2997 RMK A01 T01961058  RH  017%=      5-min Rain = 0
KGU1 241015Z 26006KT 20/M06 A2997 RMK A01 T01971058  RH  017%=      5-min Rain = 0
KGU1 241016Z 27006KT 20/M06 A2997 RMK A01 T01981059  RH  017%=      5-min Rain = 0
KGU1 241017Z 28007KT 20/M06 A2997 RMK A01 T01981059  RH  017%=      5-min Rain = 0
KGU1 241018Z 27009KT 20/M06 A2997 RMK A01 T01971059  RH  017%=      5-min Rain = 0
KGU1 241019Z 27007KT 20/M06 A2997 RMK A01 T01981060  RH  017%=      5-min Rain = 0
KGU1 241020Z 28006KT 20/M06 A2997 RMK A01 T01991060  RH  017%=      5-min Rain = 0
KGU1 241021Z 27007KT 20/M06 A2997 RMK A01 T01981060  RH  017%=      5-min Rain = 0
KGU1 241022Z 25007KT 20/M06 A2997 RMK A01 T01971059  RH  017%=      5-min Rain = 0
KGU1 241023Z 27006KT 20/M06 A2997 RMK A01 T01971057  RH  017%=      5-min Rain = 0
KGU1 241024Z 26007KT 20/M06 A2997 RMK A01 T01951057  RH  018%=      5-min Rain = 0
KGU1 241025Z 25005KT 19/M06 A2997 RMK A01 T01931058  RH  018%=      5-min Rain = 0
KGU1 241026Z 25004KT 19/M06 A2997 RMK A01 T01921058  RH  018%=      5-min Rain = 0
KGU1 241027Z 25005KT 19/M06 A2997 RMK A01 T01911058  RH  018%=      5-min Rain = 0
KGU1 241028Z 25005KT 19/M06 A2997 RMK A01 T01911058  RH  018%=      5-min Rain = 0
KGU1 241029Z 27007KT 19/M06 A2997 RMK A01 T01921060  RH  018%=      5-min Rain = 0
KGU1 241030Z 28007KT 19/M06 A2997 RMK A01 T01941060  RH  017%=      5-min Rain = 0
KGU1 241031Z 28006KT 19/M06 A2997 RMK A01 T01941060  RH  017%=      5-min Rain = 0
KGU1 241032Z 28007KT 19/M06 A2997 RMK A01 T01921060  RH  018%=      5-min Rain = 0
KGU1 241033Z 29005KT 19/M06 A2997 RMK A01 T01911060  RH  018%=      5-min Rain = 0
KGU1 241034Z 29006KT 19/M06 A2997 RMK A01 T01901060  RH  018%=      5-min Rain = 0
KGU1 241035Z 28007KT 19/M06 A2997 RMK A01 T01901061  RH  018%=      5-min Rain = 0
KGU1 241036Z 29009KT 19/M06 A2997 RMK A01 T01921060  RH  018%=      5-min Rain = 0
KGU1 241037Z 29009KT 19/M06 A2997 RMK A01 T01941060  RH  017%=      5-min Rain = 0
KGU1 241038Z 28008KT 20/M06 A2997 RMK A01 T01961060  RH  017%=      5-min Rain = 0
KGU1 241039Z 28007KT 20/M06 A2997 RMK A01 T01981060  RH  017%=      5-min Rain = 0
KGU1 241040Z 28006KT 20/M06 A2997 RMK A01 T01981059  RH  017%=      5-min Rain = 0
KGU1 241041Z 28008KT 20/M06 A2997 RMK A01 T01971060  RH  017%=      5-min Rain = 0
KGU1 241042Z 28007KT 20/M06 A2997 RMK A01 T01961060  RH  017%=      5-min Rain = 0
KGU1 241043Z 28007KT 20/M06 A2997 RMK A01 T01961060  RH  017%=      5-min Rain = 0
KGU1 241044Z 28008KT 20/M06 A2997 RMK A01 T01951059  RH  017%=      5-min Rain = 0
KGU1 241045Z 28008KT 20/M06 A2997 RMK A01 T01951060  RH  017%=      5-min Rain = 0
KGU1 241046Z 28008KT 20/M06 A2997 RMK A01 T01971059  RH  017%=      5-min Rain = 0
KGU1 241047Z 28011KT 20/M06 A2997 RMK A01 T01981059  RH  017%=      5-min Rain = 0
KGU1 241048Z 27010KT 20/M06 A2997 RMK A01 T02001059  RH  017%=      5-min Rain = 0
KGU1 241049Z 27009KT 20/M06 A2997 RMK A01 T02011059  RH  017%=      5-min Rain = 0
KGU1 241050Z 27012KT 20/M06 A2997 RMK A01 T02021059  RH  017%=      5-min Rain = 0
KGU1 241051Z 28014KT 20/M06 A2997 RMK A01 T02041059  RH  017%=      5-min Rain = 0
KGU1 241052Z 27009KT 21/M06 A2997 RMK A01 T02061059  RH  016%=      5-min Rain = 0
KGU1 241053Z 29009KT 21/M06 A2997 RMK A01 T02061058  RH  016%=      5-min Rain = 0
KGU1 241054Z 28010G15KT 20/M06 A2997 RMK A01 T02041058  RH  017%=      5-min Rain = 0
KGU1 241055Z 27013KT 20/M06 A2997 RMK A01 T02031058  RH  017%=      5-min Rain = 0
KGU1 241056Z 27011KT 21/M06 A2997 RMK A01 T02051057  RH  017%=      5-min Rain = 0
KGU1 241057Z 29010KT 21/M06 A2997 RMK A01 T02051057  RH  017%=      5-min Rain = 0
KGU1 241058Z 27011KT 20/M06 A2997 RMK A01 T02041057  RH  017%=      5-min Rain = 0
KGU1 241059Z 28011KT 20/M06 A2997 RMK A01 T02031057  RH  017%=      5-min Rain = 0
KGU1 241100Z 29013KT 20/M06 A2997 RMK A01 T02021057  RH  017%=      5-min Rain = 0
KGU1 241101Z 29012KT 20/M06 A2997 RMK A01 T02021057  RH  017%=      5-min Rain = 0
KGU1 241102Z 28010KT 20/M06 A2997 RMK A01 T02021057  RH  017%=      5-min Rain = 0
KGU1 241103Z 28010KT 20/M06 A2997 RMK A01 T02021056  RH  017%=      5-min Rain = 0
KGU1 241104Z 28010KT 20/M06 A2997 RMK A01 T02021056  RH  017%=      5-min Rain = 0
KGU1 241105Z 28012KT 20/M06 A2997 RMK A01 T02001056  RH  017%=      5-min Rain = 0
KGU1 241106Z 28013KT 20/M06 A2997 RMK A01 T02011055  RH  017%=      5-min Rain = 0
KGU1 241107Z 28012KT 20/M06 A2997 RMK A01 T02031055  RH  017%=      5-min Rain = 0
KGU1 241108Z 28012KT 20/M06 A2997 RMK A01 T02041055  RH  017%=      5-min Rain = 0
KGU1 241109Z 28012KT 20/M06 A2997 RMK A01 T02031055  RH  017%=      5-min Rain = 0
KGU1 241110Z 28012KT 20/M06 A2997 RMK A01 T02021055  RH  017%=      5-min Rain = 0
KGU1 241111Z 29013KT 20/M06 A2997 RMK A01 T02021055  RH  017%=      5-min Rain = 0
KGU1 241112Z 28010KT 20/M06 A2997 RMK A01 T02021055  RH  017%=      5-min Rain = 0
KGU1 241113Z 28013G18KT 20/M06 A2997 RMK A01 T02001055  RH  017%=      5-min Rain = 0
KGU1 241114Z 28017KT 20/M06 A2997 RMK A01 T02011055  RH  017%=      5-min Rain = 0
KGU1 241115Z 28012KT 20/M06 A2997 RMK A01 T02031055  RH  017%=      5-min Rain = 0
KGU1 241116Z 28010KT 20/M06 A2997 RMK A01 T02041055  RH  017%=      5-min Rain = 0
KGU1 241117Z 29011KT 20/M06 A2997 RMK A01 T02031055  RH  017%=      5-min Rain = 0
KGU1 241118Z 29010KT 20/M06 A2997 RMK A01 T02011055  RH  017%=      5-min Rain = 0
KGU1 241119Z 28011KT 20/M05 A2997 RMK A01 T02001054  RH  017%=      5-min Rain = 0
KGU1 241120Z 29012KT 20/M06 A2997 RMK A01 T02001055  RH  017%=      5-min Rain = 0
KGU1 241121Z 28011KT 20/M06 A2997 RMK A01 T02011055  RH  017%=      5-min Rain = 0
KGU1 241122Z 28011KT 20/M05 A2997 RMK A01 T02011054  RH  017%=      5-min Rain = 0
KGU1 241123Z 29010KT 20/M05 A2997 RMK A01 T02001054  RH  017%=      5-min Rain = 0
KGU1 241124Z 28012KT 20/M06 A2997 RMK A01 T01991055  RH  018%=      5-min Rain = 0
KGU1 241125Z 28010KT 20/M06 A2997 RMK A01 T01991055  RH  018%=      5-min Rain = 0
KGU1 241126Z 28011G16KT 20/M06 A2997 RMK A01 T01991055  RH  018%=      5-min Rain = 0
KGU1 241127Z 28014KT 20/M05 A2997 RMK A01 T01981054  RH  018%=      5-min Rain = 0
KGU1 241128Z 28013G20KT 20/M06 A2997 RMK A01 T02001055  RH  017%=      5-min Rain = 0
KGU1 241129Z 27014G19KT 20/M05 A2997 RMK A01 T02011054  RH  017%=      5-min Rain = 0
KGU1 241130Z 27011KT 20/M05 A2997 RMK A01 T02021054  RH  017%=      5-min Rain = 0
KGU1 241131Z 28013KT 20/M05 A2997 RMK A01 T02011054  RH  017%=      5-min Rain = 0
KGU1 241132Z 27013KT 20/M06 A2997 RMK A01 T02001055  RH  017%=      5-min Rain = 0
KGU1 241133Z 27011KT 20/M06 A2997 RMK A01 T02011055  RH  017%=      5-min Rain = 0
KGU1 241134Z 28012KT 20/M06 A2997 RMK A01 T02001055  RH  017%=      5-min Rain = 0
KGU1 241135Z 28013KT 20/M06 A2997 RMK A01 T01991055  RH  017%=      5-min Rain = 0
KGU1 241136Z 28013KT 20/M06 A2997 RMK A01 T02001055  RH  017%=      5-min Rain = 0
KGU1 241137Z 28013KT 20/M06 A2997 RMK A01 T02001055  RH  017%=      5-min Rain = 0
KGU1 241138Z 28012KT 20/M06 A2997 RMK A01 T02001055  RH  017%=      5-min Rain = 0
KGU1 241139Z 28011KT 20/M06 A2997 RMK A01 T01991055  RH  018%=      5-min Rain = 0
KGU1 241140Z 28012KT 20/M06 A2998 RMK A01 T01981055  RH  018%=      5-min Rain = 0
KGU1 241141Z 28012KT 20/M06 A2997 RMK A01 T01981055  RH  018%=      5-min Rain = 0
KGU1 241142Z 28012KT 20/M06 A2998 RMK A01 T01991055  RH  018%=      5-min Rain = 0
KGU1 241143Z 28012KT 20/M06 A2998 RMK A01 T01981055  RH  018%=      5-min Rain = 0
KGU1 241144Z 28012KT 20/M06 A2998 RMK A01 T01971056  RH  018%=      5-min Rain = 0
KGU1 241145Z 28013KT 20/M06 A2998 RMK A01 T01981056  RH  018%=      5-min Rain = 0
KGU1 241146Z 27013KT 20/M06 A2998 RMK A01 T01991056  RH  017%=      5-min Rain = 0
KGU1 241147Z 28014KT 20/M06 A2998 RMK A01 T01991056  RH  017%=      5-min Rain = 0
KGU1 241148Z 28015KT 20/M06 A2998 RMK A01 T02001057  RH  017%=      5-min Rain = 0
KGU1 241149Z 28017KT 20/M06 A2998 RMK A01 T02011057  RH  017%=      5-min Rain = 0
KGU1 241150Z 27016KT 20/M06 A2998 RMK A01 T02021057  RH  017%=      5-min Rain = 0
KGU1 241151Z 27013G20KT 20/M06 A2998 RMK A01 T02021057  RH  017%=      5-min Rain = 0
KGU1 241152Z 27017G23KT 20/M06 A2998 RMK A01 T02011057  RH  017%=      5-min Rain = 0
KGU1 241153Z 28013KT 20/M06 A2998 RMK A01 T02011057  RH  017%=      5-min Rain = 0
KGU1 241154Z 28014KT 20/M06 A2998 RMK A01 T02011057  RH  017%=      5-min Rain = 0
KGU1 241155Z 28015KT 20/M06 A2998 RMK A01 T02001057  RH  017%=      5-min Rain = 0
KGU1 241156Z 29013KT 20/M06 A2998 RMK A01 T01991057  RH  017%=      5-min Rain = 0
KGU1 241157Z 28013KT 20/M06 A2998 RMK A01 T01991058  RH  017%=      5-min Rain = 0
KGU1 241158Z 27013KT 20/M06 A2998 RMK A01 T01991058  RH  017%=      5-min Rain = 0
KGU1 241159Z 27016KT 20/M06 A2998 RMK A01 T01991058  RH  017%=      5-min Rain = 0
KGU1 241200Z 28015KT 20/M06 A2998 RMK A01 T01991058  RH  017%=      5-min Rain = 0
KGU1 241201Z 28015KT 20/M06 A2998 RMK A01 T01991058  RH  017%=      5-min Rain = 0
KGU1 241202Z 28016KT 20/M06 A2998 RMK A01 T01991058  RH  017%=      5-min Rain = 0
KGU1 241203Z 28013KT 20/M06 A2998 RMK A01 T01981058  RH  017%=      5-min Rain = 0
KGU1 241204Z 28017KT 20/M06 A2998 RMK A01 T01981058  RH  017%=      5-min Rain = 0
KGU1 241205Z 28018G23KT 20/M06 A2998 RMK A01 T01991058  RH  017%=      5-min Rain = 0
KGU1 241206Z 29018G25KT 20/M06 A2998 RMK A01 T02001059  RH  017%=      5-min Rain = 0
KGU1 241207Z 28015KT 20/M06 A2998 RMK A01 T02001059  RH  017%=      5-min Rain = 0
KGU1 241208Z 27018KT 20/M06 A2998 RMK A01 T02001058  RH  017%=      5-min Rain = 0
KGU1 241209Z 28015G20KT 20/M06 A2998 RMK A01 T02001058  RH  017%=      5-min Rain = 0
KGU1 241210Z 28021KT 20/M06 A2997 RMK A01 T02001059  RH  017%=      5-min Rain = 0
KGU1 241211Z 29020G27KT 20/M06 A2998 RMK A01 T02021060  RH  017%=      5-min Rain = 0
KGU1 241212Z 29020KT 20/M06 A2998 RMK A01 T02031060  RH  016%=      5-min Rain = 0
KGU1 241213Z 29019KT 20/M06 A2998 RMK A01 T02031059  RH  017%=      5-min Rain = 0
KGU1 241214Z 28017KT 20/M06 A2997 RMK A01 T02021059  RH  017%=      5-min Rain = 0
KGU1 241215Z 28016KT 20/M06 A2997 RMK A01 T02021060  RH  017%=      5-min Rain = 0
KGU1 241216Z 28020G27KT 20/M06 A2997 RMK A01 T02031060  RH  017%=      5-min Rain = 0
KGU1 241217Z 29019KT 20/M06 A2998 RMK A01 T02031060  RH  016%=      5-min Rain = 0
KGU1 241218Z 28017KT 20/M06 A2997 RMK A01 T02031059  RH  016%=      5-min Rain = 0
KGU1 241219Z 28018KT 20/M06 A2997 RMK A01 T02031060  RH  017%=      5-min Rain = 0
KGU1 241220Z 28018KT 20/M06 A2997 RMK A01 T02031060  RH  016%=      5-min Rain = 0
KGU1 241221Z 29016KT 20/M06 A2997 RMK A01 T02031060  RH  016%=      5-min Rain = 0
KGU1 241222Z 29020G26KT 20/M06 A2997 RMK A01 T02031060  RH  016%=      5-min Rain = 0
KGU1 241223Z 28022KT 20/M06 A2997 RMK A01 T02041061  RH  016%=      5-min Rain = 0
KGU1 241224Z 28019G26KT 20/M06 A2997 RMK A01 T02041061  RH  016%=      5-min Rain = 0
KGU1 241225Z 28018KT 21/M06 A2997 RMK A01 T02051061  RH  016%=      5-min Rain = 0
KGU1 241226Z 28019G24KT 20/M06 A2997 RMK A01 T02041060  RH  016%=      5-min Rain = 0
KGU1 241227Z 28018G23KT 20/M06 A2997 RMK A01 T02041061  RH  016%=      5-min Rain = 0
KGU1 241228Z 28021KT 21/M06 A2997 RMK A01 T02051062  RH  016%=      5-min Rain = 0
KGU1 241229Z 28022G27KT 21/M06 A2997 RMK A01 T02051062  RH  016%=      5-min Rain = 0
KGU1 241230Z 28022KT 21/M06 A2997 RMK A01 T02061063  RH  016%=      5-min Rain = 0
KGU1 241231Z 28021G26KT 21/M06 A2997 RMK A01 T02071063  RH  016%=      5-min Rain = 0
KGU1 241232Z 28021G26KT 21/M06 A2997 RMK A01 T02071064  RH  016%=      5-min Rain = 0
KGU1 241233Z 29020KT 21/M06 A2997 RMK A01 T02071064  RH  016%=      5-min Rain = 0
KGU1 241234Z 28020G26KT 21/M07 A2997 RMK A01 T02081065  RH  015%=      5-min Rain = 0
KGU1 241235Z 29020G26KT 21/M06 A2997 RMK A01 T02081064  RH  015%=      5-min Rain = 0
KGU1 241236Z 28021KT 21/M07 A2997 RMK A01 T02081065  RH  015%=      5-min Rain = 0
KGU1 241237Z 28019KT 21/M06 A2997 RMK A01 T02091064  RH  015%=      5-min Rain = 0
KGU1 241238Z 28022G27KT 21/M06 A2997 RMK A01 T02091064  RH  015%=      5-min Rain = 0
KGU1 241239Z 28021G27KT 21/M06 A2997 RMK A01 T02091064  RH  015%=      5-min Rain = 0
KGU1 241240Z 29022KT 21/M07 A2997 RMK A01 T02091065  RH  015%=      5-min Rain = 0
KGU1 241241Z 29019KT 21/M07 A2997 RMK A01 T02101065  RH  015%=      5-min Rain = 0
KGU1 241242Z 29017KT 21/M06 A2998 RMK A01 T02101063  RH  015%=      5-min Rain = 0
KGU1 241243Z 29021KT 21/M06 A2997 RMK A01 T02101064  RH  015%=      5-min Rain = 0
KGU1 241244Z 29022G27KT 21/M06 A2998 RMK A01 T02101064  RH  015%=      5-min Rain = 0
KGU1 241245Z 28020KT 21/M06 A2997 RMK A01 T02111064  RH  015%=      5-min Rain = 0
KGU1 241246Z 29022KT 21/M06 A2998 RMK A01 T02111064  RH  015%=      5-min Rain = 0
KGU1 241247Z 29023KT 21/M07 A2997 RMK A01 T02111065  RH  015%=      5-min Rain = 0
KGU1 241248Z 29024KT 21/M06 A2997 RMK A01 T02121064  RH  015%=      5-min Rain = 0
KGU1 241249Z 29022KT 21/M06 A2997 RMK A01 T02121064  RH  015%=      5-min Rain = 0
KGU1 241250Z 29017KT 21/M06 A2997 RMK A01 T02121062  RH  015%=      5-min Rain = 0
KGU1 241251Z 28020G25KT 21/M06 A2997 RMK A01 T02121061  RH  015%=      5-min Rain = 0
KGU1 241252Z 28021KT 21/M06 A2997 RMK A01 T02121062  RH  015%=      5-min Rain = 0
KGU1 241253Z 29020KT 21/M06 A2997 RMK A01 T02121062  RH  015%=      5-min Rain = 0
KGU1 241254Z 29022G30KT 21/M06 A2997 RMK A01 T02121062  RH  015%=      5-min Rain = 0
KGU1 241255Z 29020G28KT 21/M06 A2997 RMK A01 T02131062  RH  015%=      5-min Rain = 0
KGU1 241256Z 29018G23KT 21/M06 A2997 RMK A01 T02131061  RH  015%=      5-min Rain = 0
KGU1 241257Z 28021KT 21/M06 A2997 RMK A01 T02141061  RH  015%=      5-min Rain = 0
KGU1 241258Z 29020KT 21/M06 A2997 RMK A01 T02141062  RH  015%=      5-min Rain = 0
KGU1 241259Z 29017KT 21/M06 A2997 RMK A01 T02141061  RH  015%=      5-min Rain = 0
KGU1 241300Z 29019G24KT 21/M06 A2997 RMK A01 T02141061  RH  015%=      5-min Rain = 0
KGU1 241301Z 29018KT 22/M06 A2997 RMK A01 T02151060  RH  015%=      5-min Rain = 0
KGU1 241302Z 29023G31KT 22/M06 A2997 RMK A01 T02151060  RH  015%=      5-min Rain = 0
KGU1 241303Z 29021G29KT 22/M06 A2997 RMK A01 T02151061  RH  015%=      5-min Rain = 0
KGU1 241304Z 29022G28KT 22/M06 A2997 RMK A01 T02151061  RH  015%=      5-min Rain = 0
KGU1 241305Z 30021KT 22/M06 A2997 RMK A01 T02151061  RH  015%=      5-min Rain = 0
KGU1 241306Z 29021KT 22/M06 A2997 RMK A01 T02151060  RH  015%=      5-min Rain = 0
KGU1 241307Z 29021G26KT 22/M06 A2997 RMK A01 T02161061  RH  015%=      5-min Rain = 0
KGU1 241308Z 29022KT 22/M06 A2997 RMK A01 T02161060  RH  015%=      5-min Rain = 0
KGU1 241309Z 28021G26KT 22/M06 A2997 RMK A01 T02161061  RH  015%=      5-min Rain = 0
KGU1 241310Z 29020KT 22/M06 A2997 RMK A01 T02171061  RH  015%=      5-min Rain = 0
KGU1 241311Z 29021G27KT 22/M06 A2997 RMK A01 T02171061  RH  015%=      5-min Rain = 0
KGU1 241312Z 29023KT 22/M06 A2997 RMK A01 T02171061  RH  015%=      5-min Rain = 0
KGU1 241313Z 29022KT 22/M06 A2997 RMK A01 T02171062  RH  015%=      5-min Rain = 0
KGU1 241314Z 29020G25KT 22/M06 A2997 RMK A01 T02171061  RH  015%=      5-min Rain = 0
KGU1 241315Z 29021KT 22/M06 A2997 RMK A01 T02181061  RH  015%=      5-min Rain = 0
KGU1 241316Z 29022G27KT 22/M06 A2997 RMK A01 T02181062  RH  015%=      5-min Rain = 0
KGU1 241317Z 29022G28KT 22/M06 A2997 RMK A01 T02181062  RH  015%=      5-min Rain = 0
KGU1 241318Z 30023KT 22/M06 A2997 RMK A01 T02181062  RH  015%=      5-min Rain = 0
KGU1 241319Z 29019KT 22/M06 A2997 RMK A01 T02181061  RH  015%=      5-min Rain = 0
KGU1 241320Z 28020KT 22/M06 A2997 RMK A01 T02191059  RH  015%=      5-min Rain = 0
KGU1 241321Z 29022KT 22/M06 A2997 RMK A01 T02191060  RH  015%=      5-min Rain = 0
KGU1 241322Z 29023KT 22/M06 A2997 RMK A01 T02191060  RH  015%=      5-min Rain = 0
KGU1 241323Z 29022G28KT 22/M06 A2997 RMK A01 T02201059  RH  015%=      5-min Rain = 0
KGU1 241324Z 29022G29KT 22/M06 A2997 RMK A01 T02211059  RH  015%=      5-min Rain = 0
KGU1 241325Z 29021G27KT 22/M06 A2997 RMK A01 T02211058  RH  015%=      5-min Rain = 0
KGU1 241326Z 29020KT 22/M06 A2997 RMK A01 T02221057  RH  015%=      5-min Rain = 0
KGU1 241327Z 29024KT 22/M06 A2997 RMK A01 T02221056  RH  015%=      5-min Rain = 0
KGU1 241328Z 28021KT 22/M06 A2997 RMK A01 T02211056  RH  015%=      5-min Rain = 0
KGU1 241329Z 29021KT 22/M06 A2997 RMK A01 T02221055  RH  015%=      5-min Rain = 0
KGU1 241330Z 29024KT 22/M05 A2997 RMK A01 T02221054  RH  015%=      5-min Rain = 0
KGU1 241331Z 29020KT 22/M06 A2997 RMK A01 T02211055  RH  015%=      5-min Rain = 0
KGU1 241332Z 29018G23KT 22/M05 A2997 RMK A01 T02221054  RH  015%=      5-min Rain = 0
KGU1 241333Z 27023G28KT 22/M06 A2997 RMK A01 T02231055  RH  015%=      5-min Rain = 0
KGU1 241334Z 28017KT 22/M06 A2997 RMK A01 T02241055  RH  015%=      5-min Rain = 0
KGU1 241335Z 29022KT 22/M05 A2997 RMK A01 T02241054  RH  015%=      5-min Rain = 0
KGU1 241336Z 29019KT 22/M06 A2997 RMK A01 T02231055  RH  015%=      5-min Rain = 0
KGU1 241337Z 29021KT 22/M06 A2997 RMK A01 T02241055  RH  015%=      5-min Rain = 0
KGU1 241338Z 29016KT 22/M05 A2997 RMK A01 T02231054  RH  015%=      5-min Rain = 0
KGU1 241339Z 29016KT 23/M05 A2997 RMK A01 T02251053  RH  015%=      5-min Rain = 0
KGU1 241340Z 28017KT 23/M05 A2997 RMK A01 T02261052  RH  015%=      5-min Rain = 0
KGU1 241341Z 29018KT 23/M05 A2997 RMK A01 T02271052  RH  015%=      5-min Rain = 0
KGU1 241342Z 29018G24KT 23/M05 A2997 RMK A01 T02271053  RH  015%=      5-min Rain = 0
KGU1 241343Z 28021G26KT 23/M05 A2997 RMK A01 T02271053  RH  015%=      5-min Rain = 0
KGU1 241344Z 29021KT 23/M05 A2997 RMK A01 T02261054  RH  015%=      5-min Rain = 0
KGU1 241345Z 29016G21KT 23/M05 A2997 RMK A01 T02261054  RH  015%=      5-min Rain = 0
KGU1 241346Z 29021G30KT 23/M05 A2997 RMK A01 T02271053  RH  015%=      5-min Rain = 0
KGU1 241347Z 28019KT 23/M05 A2997 RMK A01 T02271052  RH  015%=      5-min Rain = 0
KGU1 241348Z 29022G27KT 23/M05 A2997 RMK A01 T02271051  RH  015%=      5-min Rain = 0
KGU1 241349Z 29021KT 23/M05 A2997 RMK A01 T02261051  RH  015%=      5-min Rain = 0
KGU1 241350Z 29023KT 23/M05 A2997 RMK A01 T02261051  RH  015%=      5-min Rain = 0
KGU1 241351Z 29021KT 23/M05 A2997 RMK A01 T02271052  RH  015%=      5-min Rain = 0
KGU1 241352Z 28018KT 23/M05 A2997 RMK A01 T02271052  RH  015%=      5-min Rain = 0
KGU1 241353Z 28017KT 23/M05 A2997 RMK A01 T02281051  RH  015%=      5-min Rain = 0
KGU1 241354Z 28020G27KT 23/M05 A2997 RMK A01 T02291054  RH  015%=      5-min Rain = 0
KGU1 241355Z 28020KT 23/M06 A2997 RMK A01 T02291055  RH  015%=      5-min Rain = 0
KGU1 241356Z 28018KT 23/M06 A2997 RMK A01 T02291056  RH  014%=      5-min Rain = 0
KGU1 241357Z 28018KT 23/M06 A2997 RMK A01 T02291056  RH  014%=      5-min Rain = 0
KGU1 241358Z 28019KT 23/M06 A2997 RMK A01 T02301056  RH  014%=      5-min Rain = 0
KGU1 241359Z 28022G30KT 23/M05 A2997 RMK A01 T02301054  RH  015%=      5-min Rain = 0
KGU1 241400Z 29025KT 23/M06 A2997 RMK A01 T02291055  RH  015%=      5-min Rain = 0
KGU1 241401Z 29023KT 23/M06 A2997 RMK A01 T02281056  RH  015%=      5-min Rain = 0
KGU1 241402Z 29021KT 23/M06 A2997 RMK A01 T02281055  RH  015%=      5-min Rain = 0
KGU1 241403Z 29018KT 23/M05 A2997 RMK A01 T02281053  RH  015%=      5-min Rain = 0
KGU1 241404Z 29022KT 23/M05 A2997 RMK A01 T02291052  RH  015%=      5-min Rain = 0
KGU1 241405Z 29019KT 23/M05 A2997 RMK A01 T02291051  RH  015%=      5-min Rain = 0
KGU1 241406Z 29020KT 23/M05 A2997 RMK A01 T02301049  RH  015%=      5-min Rain = 0
KGU1 241407Z 29019KT 23/M05 A2997 RMK A01 T02291049  RH  015%=      5-min Rain = 0
KGU1 241408Z 28020G25KT 23/M05 A2997 RMK A01 T02301048  RH  015%=      5-min Rain = 0
KGU1 241409Z 28020G27KT 23/M05 A2997 RMK A01 T02301046  RH  015%=      5-min Rain = 0
KGU1 241410Z 28022KT 23/M05 A2997 RMK A01 T02301046  RH  015%=      5-min Rain = 0
KGU1 241411Z 28020G25KT 23/M05 A2997 RMK A01 T02301046  RH  016%=      5-min Rain = 0
KGU1 241412Z 28018G26KT 23/M04 A2997 RMK A01 T02311044  RH  016%=      5-min Rain = 0
KGU1 241413Z 28020G27KT 23/M04 A2997 RMK A01 T02321043  RH  016%=      5-min Rain = 0
KGU1 241414Z 28021KT 23/M04 A2997 RMK A01 T02311043  RH  016%=      5-min Rain = 0
KGU1 241415Z 29020G25KT 23/M04 A2997 RMK A01 T02311043  RH  016%=      5-min Rain = 0
KGU1 241416Z 28020G25KT 23/M04 A2997 RMK A01 T02301043  RH  016%=      5-min Rain = 0
KGU1 241417Z 28019KT 23/M04 A2998 RMK A01 T02311043  RH  016%=      5-min Rain = 0
KGU1 241418Z 28019KT 23/M04 A2998 RMK A01 T02311043  RH  016%=      5-min Rain = 0
KGU1 241419Z 28018G25KT 23/M05 A2997 RMK A01 T02321045  RH  016%=      5-min Rain = 0
KGU1 241420Z 28022KT 23/M05 A2998 RMK A01 T02321046  RH  015%=      5-min Rain = 0
KGU1 241421Z 29022KT 23/M05 A2998 RMK A01 T02321049  RH  015%=      5-min Rain = 0
KGU1 241422Z 28018G23KT 23/M05 A2998 RMK A01 T02321048  RH  015%=      5-min Rain = 0
KGU1 241423Z 28020KT 23/M05 A2998 RMK A01 T02331048  RH  015%=      5-min Rain = 0
KGU1 241424Z 28022G28KT 23/M05 A2998 RMK A01 T02331051  RH  015%=      5-min Rain = 0
KGU1 241425Z 29020KT 23/M05 A2998 RMK A01 T02331053  RH  015%=      5-min Rain = 0
KGU1 241426Z 29019G24KT 23/M05 A2998 RMK A01 T02331052  RH  015%=      5-min Rain = 0
KGU1 241427Z 28018G27KT 23/M05 A2998 RMK A01 T02341051  RH  015%=      5-min Rain = 0
KGU1 241428Z 28021KT 23/M05 A2998 RMK A01 T02341054  RH  014%=      5-min Rain = 0
KGU1 241429Z 28019G24KT 23/M05 A2998 RMK A01 T02341053  RH  014%=      5-min Rain = 0
KGU1 241430Z 29019G24KT 23/M05 A2998 RMK A01 T02331054  RH  014%=      5-min Rain = 0
KGU1 241431Z 28020G25KT 23/M05 A2998 RMK A01 T02331054  RH  014%=      5-min Rain = 0
KGU1 241432Z 30021G26KT 23/M05 A2998 RMK A01 T02331053  RH  014%=      5-min Rain = 0
KGU1 241433Z 30022KT 23/M05 A2998 RMK A01 T02311054  RH  014%=      5-min Rain = 0
KGU1 241434Z 30022G29KT 23/M06 A2998 RMK A01 T02291055  RH  015%=      5-min Rain = 0
KGU1 241435Z 29018KT 23/M06 A2998 RMK A01 T02271055  RH  015%=      5-min Rain = 0
KGU1 241436Z 30018G24KT 23/M05 A2998 RMK A01 T02271054  RH  015%=      5-min Rain = 0
KGU1 241437Z 29024KT 23/M06 A2999 RMK A01 T02271055  RH  015%=      5-min Rain = 0
KGU1 241438Z 29018KT 23/M06 A2998 RMK A01 T02261055  RH  015%=      5-min Rain = 0
KGU1 241439Z 29020KT 23/M06 A2999 RMK A01 T02261055  RH  015%=      5-min Rain = 0
KGU1 241440Z 29021KT 23/M05 A2999 RMK A01 T02271054  RH  015%=      5-min Rain = 0
KGU1 241441Z 30018G24KT 23/M05 A2999 RMK A01 T02291053  RH  015%=      5-min Rain = 0
KGU1 241442Z 30023G28KT 23/M05 A2999 RMK A01 T02301054  RH  015%=      5-min Rain = 0
KGU1 241443Z 29022G28KT 23/M06 A2999 RMK A01 T02291055  RH  015%=      5-min Rain = 0
KGU1 241444Z 29019KT 23/M05 A2999 RMK A01 T02301054  RH  015%=      5-min Rain = 0
KGU1 241445Z 29019G26KT 23/M05 A2999 RMK A01 T02331054  RH  014%=      5-min Rain = 0
KGU1 241446Z 30018G25KT 23/M05 A2999 RMK A01 T02331054  RH  014%=      5-min Rain = 0
KGU1 241447Z 30023KT 23/M06 A2999 RMK A01 T02321055  RH  014%=      5-min Rain = 0
KGU1 241448Z 29022KT 23/M06 A2999 RMK A01 T02311055  RH  014%=      5-min Rain = 0
KGU1 241449Z 28023KT 23/M06 A2999 RMK A01 T02311055  RH  014%=      5-min Rain = 0
KGU1 241450Z 29023KT 23/M06 A2999 RMK A01 T02311056  RH  014%=      5-min Rain = 0
KGU1 241451Z 30021KT 23/M06 A2999 RMK A01 T02301057  RH  014%=      5-min Rain = 0
KGU1 241452Z 30018G23KT 23/M06 A2999 RMK A01 T02271057  RH  015%=      5-min Rain = 0
KGU1 241453Z 30018G25KT 23/M06 A2999 RMK A01 T02261055  RH  015%=      5-min Rain = 0
KGU1 241454Z 30018G23KT 23/M06 A2999 RMK A01 T02251057  RH  015%=      5-min Rain = 0
KGU1 241455Z 30016G21KT 22/M06 A2999 RMK A01 T02241056  RH  015%=      5-min Rain = 0
KGU1 241456Z 30020G25KT 22/M06 A2999 RMK A01 T02231057  RH  015%=      5-min Rain = 0
KGU1 241457Z 30015KT 22/M06 A2999 RMK A01 T02211057  RH  015%=      5-min Rain = 0
KGU1 241458Z 30016G24KT 22/M06 A2999 RMK A01 T02221056  RH  015%=      5-min Rain = 0
KGU1 241459Z 29023G29KT 22/M06 A2999 RMK A01 T02241057  RH  015%=      5-min Rain = 0
KGU1 241500Z 30020KT 22/M06 A2999 RMK A01 T02241057  RH  015%=      5-min Rain = 0
KGU1 241501Z 30018G25KT 23/M06 A2999 RMK A01 T02251055  RH  015%=      5-min Rain = 0
KGU1 241502Z 30019KT 23/M06 A2999 RMK A01 T02261055  RH  015%=      5-min Rain = 0
KGU1 241503Z 30016G22KT 23/M05 A2999 RMK A01 T02251053  RH  015%=      5-min Rain = 0
KGU1 241504Z 30020KT 23/M06 A2999 RMK A01 T02271055  RH  015%=      5-min Rain = 0
KGU1 241505Z 30018G24KT 23/M05 A2999 RMK A01 T02271054  RH  015%=      5-min Rain = 0
KGU1 241506Z 29018KT 23/M05 A2999 RMK A01 T02271054  RH  015%=      5-min Rain = 0
KGU1 241507Z 29018G25KT 23/M05 A2999 RMK A01 T02281054  RH  015%=      5-min Rain = 0
KGU1 241508Z 30011G16KT 23/M05 A2999 RMK A01 T02281051  RH  015%=      5-min Rain = 0
KGU1 241509Z 29014KT 23/M05 A2999 RMK A01 T02281051  RH  015%=      5-min Rain = 0
KGU1 241510Z 30013KT 23/M05 A2999 RMK A01 T02271051  RH  015%=      5-min Rain = 0
KGU1 241511Z 31015G20KT 23/M05 A30 RMK A01 T02271049  RH  015%=      5-min Rain = 0
KGU1 241512Z 31014KT 23/M05 A2999 RMK A01 T02261049  RH  016%=      5-min Rain = 0
KGU1 241513Z 30015KT 23/M05 A2999 RMK A01 T02251048  RH  016%=      5-min Rain = 0
KGU1 241514Z 31015KT 23/M05 A2999 RMK A01 T02261047  RH  016%=      5-min Rain = 0
KGU1 241515Z 31016KT 23/M05 A30 RMK A01 T02261046  RH  016%=      5-min Rain = 0
KGU1 241516Z 31017KT 23/M05 A30 RMK A01 T02261045  RH  016%=      5-min Rain = 0
KGU1 241517Z 30014KT 23/M04 A30 RMK A01 T02291044  RH  016%=      5-min Rain = 0
KGU1 241518Z 30016KT 23/M04 A30 RMK A01 T02321044  RH  016%=      5-min Rain = 0
KGU1 241519Z 31015G21KT 23/M04 A30 RMK A01 T02331044  RH  015%=      5-min Rain = 0
KGU1 241520Z 31017KT 23/M05 A30 RMK A01 T02301047  RH  015%=      5-min Rain = 0
KGU1 241521Z 30013G21KT 23/M04 A2999 RMK A01 T02291044  RH  016%=      5-min Rain = 0
KGU1 241522Z 30019KT 23/M04 A30 RMK A01 T02311044  RH  016%=      5-min Rain = 0
KGU1 241523Z 30014KT 23/M04 A2999 RMK A01 T02331042  RH  016%=      5-min Rain = 0
KGU1 241524Z 30016KT 24/M04 A2999 RMK A01 T02371043  RH  015%=      5-min Rain = 0
KGU1 241525Z 29019KT 24/M04 A2999 RMK A01 T02361044  RH  015%=      5-min Rain = 0
KGU1 241526Z 29020G26KT 24/M05 A2999 RMK A01 T02351045  RH  015%=      5-min Rain = 0
KGU1 241527Z 29019G25KT 23/M05 A2999 RMK A01 T02331046  RH  015%=      5-min Rain = 0
KGU1 241528Z 29019G26KT 23/M05 A2999 RMK A01 T02311046  RH  015%=      5-min Rain = 0
KGU1 241529Z 29020G27KT 23/M05 A2999 RMK A01 T02321046  RH  015%=      5-min Rain = 0
KGU1 241530Z 30022G27KT 23/M05 A2999 RMK A01 T02311047  RH  015%=      5-min Rain = 0
KGU1 241531Z 29021G27KT 23/M05 A2999 RMK A01 T02301047  RH  015%=      5-min Rain = 0
KGU1 241532Z 29016KT 23/M05 A2999 RMK A01 T02321046  RH  015%=      5-min Rain = 0
KGU1 241533Z 29019KT 23/M05 A2999 RMK A01 T02341045  RH  015%=      5-min Rain = 0
KGU1 241534Z 29019G25KT 23/M05 A2999 RMK A01 T02321046  RH  015%=      5-min Rain = 0
KGU1 241535Z 29021G31KT 23/M05 A2999 RMK A01 T02311047  RH  015%=      5-min Rain = 0
KGU1 241536Z 29022KT 23/M05 A2999 RMK A01 T02301047  RH  015%=      5-min Rain = 0
KGU1 241537Z 30019G24KT 23/M05 A2999 RMK A01 T02281048  RH  015%=      5-min Rain = 0
KGU1 241538Z 29021KT 23/M05 A2999 RMK A01 T02271047  RH  016%=      5-min Rain = 0
KGU1 241539Z 30022G29KT 23/M05 A2999 RMK A01 T02291046  RH  016%=      5-min Rain = 0
KGU1 241540Z 29020KT 23/M05 A2999 RMK A01 T02311046  RH  015%=      5-min Rain = 0
KGU1 241541Z 29018KT 23/M05 A2999 RMK A01 T02301046  RH  016%=      5-min Rain = 0
KGU1 241542Z 29020G26KT 23/M05 A2999 RMK A01 T02311045  RH  016%=      5-min Rain = 0
KGU1 241543Z 29023G30KT 23/M05 A2999 RMK A01 T02331045  RH  015%=      5-min Rain = 0
KGU1 241544Z 30021G31KT 23/M05 A2999 RMK A01 T02321045  RH  015%=      5-min Rain = 0
KGU1 241545Z 29019G25KT 23/M04 A2999 RMK A01 T02341043  RH  016%=      5-min Rain = 0
KGU1 241546Z 29023G29KT 24/M04 A2999 RMK A01 T02351043  RH  015%=      5-min Rain = 0
KGU1 241547Z 29020G28KT 23/M04 A2999 RMK A01 T02341042  RH  016%=      5-min Rain = 0
KGU1 241548Z 29020G28KT 24/M04 A2999 RMK A01 T02361042  RH  015%=      5-min Rain = 0
KGU1 241549Z 29022G28KT 24/M05 A2999 RMK A01 T02371045  RH  015%=      5-min Rain = 0
KGU1 241550Z 29023G31KT 23/M05 A2999 RMK A01 T02341046  RH  015%=      5-min Rain = 0
KGU1 241551Z 28019KT 23/M05 A2999 RMK A01 T02341045  RH  015%=      5-min Rain = 0
KGU1 241552Z 28020G26KT 24/M05 A2999 RMK A01 T02361045  RH  015%=      5-min Rain = 0
KGU1 241553Z 30021G26KT 23/M05 A2999 RMK A01 T02341047  RH  015%=      5-min Rain = 0
KGU1 241554Z 29018KT 23/M05 A2999 RMK A01 T02341047  RH  015%=      5-min Rain = 0
KGU1 241555Z 29021G30KT 23/M05 A2999 RMK A01 T02331048  RH  015%=      5-min Rain = 0
KGU1 241556Z 29017G22KT 23/M05 A2999 RMK A01 T02321049  RH  015%=      5-min Rain = 0
KGU1 241557Z 29021KT 23/M05 A2999 RMK A01 T02341048  RH  015%=      5-min Rain = 0
KGU1 241558Z 29018G23KT 24/M05 A2999 RMK A01 T02351047  RH  015%=      5-min Rain = 0
KGU1 241559Z 28019G24KT 23/M05 A2999 RMK A01 T02341048  RH  015%=      5-min Rain = 0
KGU1 241600Z 30017KT 23/M05 A2999 RMK A01 T02341047  RH  015%=      5-min Rain = 0
KGU1 241601Z 29019G27KT 23/M05 A2999 RMK A01 T02341046  RH  015%=      5-min Rain = 0
KGU1 241602Z 29020KT 23/M05 A2999 RMK A01 T02321048  RH  015%=      5-min Rain = 0
KGU1 241603Z 29018G23KT 23/M05 A2999 RMK A01 T02311048  RH  015%=      5-min Rain = 0
KGU1 241604Z 29018KT 23/M05 A2999 RMK A01 T02311047  RH  015%=      5-min Rain = 0
KGU1 241605Z 29020G25KT 23/M05 A2999 RMK A01 T02331047  RH  015%=      5-min Rain = 0
KGU1 241606Z 29022KT 23/M05 A2999 RMK A01 T02321048  RH  015%=      5-min Rain = 0
KGU1 241607Z 29020KT 23/M05 A2999 RMK A01 T02331047  RH  015%=      5-min Rain = 0
KGU1 241608Z 29023KT 23/M05 A2999 RMK A01 T02321048  RH  015%=      5-min Rain = 0
KGU1 241609Z 30018KT 23/M05 A2999 RMK A01 T02311048  RH  015%=      5-min Rain = 0
KGU1 241610Z 29014G21KT 23/M05 A2999 RMK A01 T02311045  RH  016%=      5-min Rain = 0
KGU1 241611Z 28020KT 23/M05 A2999 RMK A01 T02331047  RH  015%=      5-min Rain = 0
KGU1 241612Z 29021KT 23/M05 A2999 RMK A01 T02321046  RH  015%=      5-min Rain = 0
KGU1 241613Z 29021G26KT 23/M05 A2999 RMK A01 T02321046  RH  015%=      5-min Rain = 0
KGU1 241614Z 30018G23KT 23/M05 A2999 RMK A01 T02311045  RH  016%=      5-min Rain = 0
KGU1 241615Z 29022G28KT 23/M05 A2999 RMK A01 T02311045  RH  016%=      5-min Rain = 0
KGU1 241616Z 29020KT 23/M05 A2999 RMK A01 T02291045  RH  016%=      5-min Rain = 0
KGU1 241617Z 29021KT 23/M04 A2999 RMK A01 T02281044  RH  016%=      5-min Rain = 0
KGU1 241618Z 29020G26KT 23/M04 A2999 RMK A01 T02281044  RH  016%=      5-min Rain = 0
KGU1 241619Z 30021KT 23/M05 A2999 RMK A01 T02271045  RH  016%=      5-min Rain = 0
KGU1 241620Z 29022KT 23/M05 A2999 RMK A01 T02271045  RH  016%=      5-min Rain = 0
KGU1 241621Z 30021G28KT 23/M05 A2999 RMK A01 T02271045  RH  016%=      5-min Rain = 0
KGU1 241622Z 30022G27KT 23/M05 A2999 RMK A01 T02261046  RH  016%=      5-min Rain = 0
KGU1 241623Z 29017G23KT 23/M04 A2999 RMK A01 T02271044  RH  016%=      5-min Rain = 0
KGU1 241624Z 30021G26KT 23/M04 A2999 RMK A01 T02301044  RH  016%=      5-min Rain = 0
KGU1 241625Z 29022KT 23/M04 A2999 RMK A01 T02291044  RH  016%=      5-min Rain = 0
KGU1 241626Z 29020G27KT 23/M05 A2999 RMK A01 T02291045  RH  016%=      5-min Rain = 0
KGU1 241627Z 29021G26KT 23/M05 A2999 RMK A01 T02291046  RH  016%=      5-min Rain = 0
KGU1 241628Z 29019G25KT 23/M05 A2999 RMK A01 T02291045  RH  016%=      5-min Rain = 0
KGU1 241629Z 30020G25KT 23/M05 A2999 RMK A01 T02301045  RH  016%=      5-min Rain = 0
KGU1 241630Z 30018G23KT 23/M04 A2999 RMK A01 T02301044  RH  016%=      5-min Rain = 0
KGU1 241631Z 29021G27KT 23/M04 A2999 RMK A01 T02281043  RH  016%=      5-min Rain = 0
KGU1 241632Z 30021G29KT 23/M04 A2999 RMK A01 T02271043  RH  016%=      5-min Rain = 0
KGU1 241633Z 30019G24KT 23/M04 A2999 RMK A01 T02271042  RH  016%=      5-min Rain = 0
KGU1 241634Z 30019KT 23/M04 A2999 RMK A01 T02281042  RH  016%=      5-min Rain = 0
KGU1 241635Z 30021G27KT 23/M04 A2999 RMK A01 T02281042  RH  016%=      5-min Rain = 0
KGU1 241636Z 30020KT 23/M04 A2999 RMK A01 T02291043  RH  016%=      5-min Rain = 0
KGU1 241637Z 30016KT 23/M04 A2999 RMK A01 T02301041  RH  016%=      5-min Rain = 0
KGU1 241638Z 30017KT 24/M04 A2999 RMK A01 T02351040  RH  016%=      5-min Rain = 0
KGU1 241639Z 30016KT 24/M04 A2999 RMK A01 T02361041  RH  016%=      5-min Rain = 0
KGU1 241640Z 29016KT 24/M04 A2999 RMK A01 T02381039  RH  016%=      5-min Rain = 0
KGU1 241641Z 30022G27KT 24/M04 A2999 RMK A01 T02381040  RH  015%=      5-min Rain = 0
KGU1 241642Z 30020KT 24/M04 A2999 RMK A01 T02351041  RH  016%=      5-min Rain = 0
KGU1 241643Z 30019G26KT 23/M04 A2999 RMK A01 T02341041  RH  016%=      5-min Rain = 0
KGU1 241644Z 30024KT 23/M04 A2999 RMK A01 T02321042  RH  016%=      5-min Rain = 0
KGU1 241645Z 30022G27KT 23/M04 A2999 RMK A01 T02311042  RH  016%=      5-min Rain = 0
KGU1 241646Z 30016KT 23/M04 A2999 RMK A01 T02341039  RH  016%=      5-min Rain = 0
KGU1 241647Z 30019KT 24/M04 A2999 RMK A01 T02401038  RH  016%=      5-min Rain = 0
KGU1 241648Z 30020KT 24/M04 A2999 RMK A01 T02401038  RH  016%=      5-min Rain = 0
KGU1 241649Z 30021KT 24/M04 A2999 RMK A01 T02391038  RH  016%=      5-min Rain = 0
KGU1 241650Z 30019KT 24/M04 A2999 RMK A01 T02371039  RH  016%=      5-min Rain = 0
KGU1 241651Z 30020KT 24/M04 A2999 RMK A01 T02351039  RH  016%=      5-min Rain = 0
KGU1 241652Z 30020KT 23/M04 A2999 RMK A01 T02341038  RH  016%=      5-min Rain = 0
KGU1 241653Z 30019G24KT 23/M04 A2999 RMK A01 T02321038  RH  016%=      5-min Rain = 0
KGU1 241654Z 30019G26KT 23/M04 A2999 RMK A01 T02311038  RH  016%=      5-min Rain = 0
KGU1 241655Z 30015G22KT 23/M04 A2999 RMK A01 T02321036  RH  017%=      5-min Rain = 0
KGU1 241656Z 31020G26KT 23/M04 A2999 RMK A01 T02341035  RH  016%=      5-min Rain = 0
KGU1 241657Z 30020KT 23/M04 A2999 RMK A01 T02331037  RH  016%=      5-min Rain = 0
KGU1 241658Z 30019G24KT 23/M04 A2999 RMK A01 T02321039  RH  016%=      5-min Rain = 0
KGU1 241659Z 29021G26KT 23/M04 A2999 RMK A01 T02321039  RH  016%=      5-min Rain = 0
KGU1 241700Z 30021KT 23/M04 A2999 RMK A01 T02311038  RH  016%=      5-min Rain = 0
KGU1 241701Z 30020KT 23/M04 A2999 RMK A01 T02331037  RH  016%=      5-min Rain = 0
KGU1 241702Z 30017KT 24/M04 A2999 RMK A01 T02351036  RH  016%=      5-min Rain = 0
KGU1 241703Z 29017KT 24/M04 A2999 RMK A01 T02381036  RH  016%=      5-min Rain = 0
KGU1 241704Z 30015G20KT 24/M04 A2999 RMK A01 T02391036  RH  016%=      5-min Rain = 0
KGU1 241705Z 29019KT 24/M04 A2999 RMK A01 T02381037  RH  016%=      5-min Rain = 0
KGU1 241706Z 29017G23KT 24/M03 A2999 RMK A01 T02391034  RH  016%=      5-min Rain = 0
KGU1 241707Z 29016G21KT 24/M03 A2999 RMK A01 T02431033  RH  016%=      5-min Rain = 0
KGU1 241708Z 29017G22KT 25/M04 A2999 RMK A01 T02461035  RH  015%=      5-min Rain = 0
KGU1 241709Z 29015KT 25/M04 A2999 RMK A01 T02471035  RH  015%=      5-min Rain = 0
KGU1 241710Z 29017G23KT 25/M03 A2999 RMK A01 T02511034  RH  015%=      5-min Rain = 0
KGU1 241711Z 30017KT 25/M04 A2999 RMK A01 T02481036  RH  015%=      5-min Rain = 0
KGU1 241712Z 29019KT 25/M03 A2999 RMK A01 T02481033  RH  015%=      5-min Rain = 0
KGU1 241713Z 29018KT 25/M03 A2999 RMK A01 T02491032  RH  015%=      5-min Rain = 0
KGU1 241714Z 29023KT 25/M04 A2999 RMK A01 T02481035  RH  015%=      5-min Rain = 0
KGU1 241715Z 29020KT 25/M04 A2999 RMK A01 T02461035  RH  015%=      5-min Rain = 0
KGU1 241716Z 30018KT 24/M04 A2999 RMK A01 T02441036  RH  015%=      5-min Rain = 0
KGU1 241717Z 30015KT 24/M04 A2999 RMK A01 T02421037  RH  015%=      5-min Rain = 0
KGU1 241718Z 29019G25KT 24/M04 A2999 RMK A01 T02421036  RH  016%=      5-min Rain = 0
KGU1 241719Z 29019G25KT 24/M04 A2999 RMK A01 T02401035  RH  016%=      5-min Rain = 0
KGU1 241720Z 28018KT 24/M04 A2999 RMK A01 T02391035  RH  016%=      5-min Rain = 0
KGU1 241721Z 28017G25KT 24/M04 A2999 RMK A01 T02381035  RH  016%=      5-min Rain = 0
KGU1 241722Z 29018G24KT 24/M03 A2999 RMK A01 T02381034  RH  016%=      5-min Rain = 0
KGU1 241723Z 29018G27KT 24/M04 A2999 RMK A01 T02381035  RH  016%=      5-min Rain = 0
KGU1 241724Z 29018KT 24/M03 A2999 RMK A01 T02391034  RH  016%=      5-min Rain = 0
KGU1 241725Z 29020KT 24/M03 A2999 RMK A01 T02401034  RH  016%=      5-min Rain = 0
KGU1 241726Z 29017KT 24/M03 A2999 RMK A01 T02401031  RH  016%=      5-min Rain = 0
KGU1 241727Z 29015G22KT 25/M03 A2999 RMK A01 T02451031  RH  016%=      5-min Rain = 0
KGU1 241728Z 28019KT 25/M03 A2999 RMK A01 T02491032  RH  015%=      5-min Rain = 0
KGU1 241729Z 28019G24KT 25/M03 A2999 RMK A01 T02461033  RH  016%=      5-min Rain = 0
KGU1 241730Z 28017KT 25/M03 A2999 RMK A01 T02461032  RH  016%=      5-min Rain = 0
KGU1 241731Z 29018KT 25/M03 A2999 RMK A01 T02451031  RH  016%=      5-min Rain = 0
KGU1 241732Z 29021G26KT 24/M03 A2999 RMK A01 T02431031  RH  016%=      5-min Rain = 0
KGU1 241733Z 27019G24KT 24/M03 A2999 RMK A01 T02391030  RH  017%=      5-min Rain = 0
KGU1 241734Z 27017G22KT 24/M03 A2999 RMK A01 T02371029  RH  017%=      5-min Rain = 0
KGU1 241735Z 27018KT 24/M03 A2999 RMK A01 T02391028  RH  017%=      5-min Rain = 0
KGU1 241736Z 28019KT 24/M03 A2999 RMK A01 T02401026  RH  017%=      5-min Rain = 0
KGU1 241737Z 28018G23KT 24/M03 A2999 RMK A01 T02401025  RH  017%=      5-min Rain = 0
KGU1 241738Z 27017G23KT 24/M02 A2999 RMK A01 T02411024  RH  017%=      5-min Rain = 0
KGU1 241739Z 28017KT 24/M03 A2999 RMK A01 T02381025  RH  017%=      5-min Rain = 0
KGU1 241740Z 28018KT 24/M03 A2999 RMK A01 T02361025  RH  018%=      5-min Rain = 0
KGU1 241741Z 27016G22KT 24/M03 A2999 RMK A01 T02351027  RH  017%=      5-min Rain = 0
KGU1 241742Z 28018KT 23/M03 A2999 RMK A01 T02341029  RH  017%=      5-min Rain = 0
KGU1 241743Z 28018KT 23/M03 A2999 RMK A01 T02331030  RH  017%=      5-min Rain = 0
KGU1 241744Z 28013KT 23/M03 A2999 RMK A01 T02321029  RH  017%=      5-min Rain = 0
KGU1 241745Z 28018KT 23/M03 A2999 RMK A01 T02341029  RH  017%=      5-min Rain = 0
KGU1 241746Z 29019G25KT 24/M03 A2999 RMK A01 T02351029  RH  017%=      5-min Rain = 0
KGU1 241747Z 29021KT 24/M03 A2999 RMK A01 T02381028  RH  017%=      5-min Rain = 0
KGU1 241748Z 28016KT 24/M03 A2999 RMK A01 T02391027  RH  017%=      5-min Rain = 0
KGU1 241749Z 28014KT 24/M03 A2999 RMK A01 T02441026  RH  017%=      5-min Rain = 0
KGU1 241750Z 27013G20KT 25/M03 A2999 RMK A01 T02491026  RH  016%=      5-min Rain = 0
KGU1 241751Z 25012G18KT 25/M02 A2999 RMK A01 T02521024  RH  016%=      5-min Rain = 0
KGU1 241752Z 27010G16KT 26/M03 A2999 RMK A01 T02551026  RH  016%=      5-min Rain = 0
KGU1 241753Z 26015G20KT 26/M03 A2999 RMK A01 T02581025  RH  015%=      5-min Rain = 0
KGU1 241754Z 26014KT 26/M02 A2999 RMK A01 T02581024  RH  016%=      5-min Rain = 0
KGU1 241755Z 25014G19KT 26/M03 A2999 RMK A01 T02591026  RH  015%=      5-min Rain = 0
KGU1 241756Z 25015KT 26/M03 A2999 RMK A01 T02551028  RH  015%=      5-min Rain = 0
KGU1 241757Z 28015KT 25/M03 A2999 RMK A01 T02521027  RH  016%=      5-min Rain = 0
KGU1 241758Z 27014KT 25/M03 A2999 RMK A01 T02541025  RH  016%=      5-min Rain = 0
KGU1 241759Z 26019KT 26/M03 A2999 RMK A01 T02571026  RH  015%=      5-min Rain = 0
KGU1 241800Z 25017KT 25/M03 A2999 RMK A01 T02531028  RH  016%=      5-min Rain = 0
KGU1 241801Z 26014KT 25/M03 A2999 RMK A01 T02501029  RH  016%=      5-min Rain = 0
KGU1 241802Z 27014KT 25/M02 A2999 RMK A01 T02531024  RH  016%=      5-min Rain = 0
KGU1 241803Z 28013KT 26/M02 A2999 RMK A01 T02561023  RH  016%=      5-min Rain = 0
KGU1 241804Z 27014KT 26/M02 A2999 RMK A01 T02561024  RH  016%=      5-min Rain = 0
KGU1 241805Z 28014KT 26/M02 A2999 RMK A01 T02561024  RH  016%=      5-min Rain = 0
KGU1 241806Z 28015KT 26/M03 A2999 RMK A01 T02571025  RH  016%=      5-min Rain = 0
KGU1 241807Z 29018G23KT 26/M03 A2999 RMK A01 T02571026  RH  015%=      5-min Rain = 0
KGU1 241808Z 29016KT 25/M03 A2999 RMK A01 T02531029  RH  015%=      5-min Rain = 0
KGU1 241809Z 28018KT 25/M03 A2999 RMK A01 T02531029  RH  015%=      5-min Rain = 0
KGU1 241810Z 25015KT 25/M03 A2999 RMK A01 T02541028  RH  015%=      5-min Rain = 0
KGU1 241811Z 26012KT 25/M03 A2999 RMK A01 T02511026  RH  016%=      5-min Rain = 0
KGU1 241812Z 28011KT 25/M02 A2999 RMK A01 T02541022  RH  016%=      5-min Rain = 0
KGU1 241813Z 30011G17KT 26/M02 A2999 RMK A01 T02601021  RH  016%=      5-min Rain = 0
KGU1 241814Z 28016G29KT 26/M03 A2999 RMK A01 T02621025  RH  015%=      5-min Rain = 0
KGU1 241815Z 24010G15KT 26/M02 A2999 RMK A01 T02631024  RH  015%=      5-min Rain = 0
KGU1 241816Z 26011KT 26/M03 A2999 RMK A01 T02601026  RH  015%=      5-min Rain = 0
KGU1 241817Z 26013G18KT 26/M03 A2999 RMK A01 T02601028  RH  015%=      5-min Rain = 0
KGU1 241818Z 27015KT 26/M03 A2999 RMK A01 T02591028  RH  015%=      5-min Rain = 0
KGU1 241819Z 26012G17KT 26/M03 A2999 RMK A01 T02581028  RH  015%=      5-min Rain = 0
KGU1 241820Z 28013KT 26/M03 A2999 RMK A01 T02571029  RH  015%=      5-min Rain = 0
KGU1 241821Z 30013KT 26/M03 A2999 RMK A01 T02571028  RH  015%=      5-min Rain = 0
KGU1 241822Z 31014G19KT 26/M03 A2999 RMK A01 T02571031  RH  015%=      5-min Rain = 0
KGU1 241823Z 29016KT 26/M03 A2999 RMK A01 T02561032  RH  015%=      5-min Rain = 0
KGU1 241824Z 29016KT 26/M03 A2999 RMK A01 T02571034  RH  014%=      5-min Rain = 0
KGU1 241825Z 29015G22KT 26/M04 A2999 RMK A01 T02591035  RH  014%=      5-min Rain = 0
KGU1 241826Z 28018KT 26/M03 A2999 RMK A01 T02591034  RH  014%=      5-min Rain = 0
KGU1 241827Z 29013KT 26/M03 A2999 RMK A01 T02571033  RH  015%=      5-min Rain = 0
KGU1 241828Z 28018KT 26/M03 A2999 RMK A01 T02591034  RH  014%=      5-min Rain = 0
KGU1 241829Z 29014KT 26/M04 A2999 RMK A01 T02591035  RH  014%=      5-min Rain = 0
KGU1 241830Z 30015G22KT 26/M04 A2999 RMK A01 T02591036  RH  014%=      5-min Rain = 0
KGU1 241831Z 29012KT 26/M04 A2999 RMK A01 T02601035  RH  014%=      5-min Rain = 0
KGU1 241832Z 29014G19KT 26/M03 A2999 RMK A01 T02591033  RH  014%=      5-min Rain = 0
KGU1 241833Z 29018KT 26/M04 A2999 RMK A01 T02601037  RH  014%=      5-min Rain = 0
KGU1 241834Z 30016G21KT 26/M04 A2999 RMK A01 T02591035  RH  014%=      5-min Rain = 0
KGU1 241835Z 29022G27KT 26/M04 A2999 RMK A01 T02581035  RH  014%=      5-min Rain = 0
KGU1 241836Z 28015G20KT 26/M04 A2999 RMK A01 T02571035  RH  014%=      5-min Rain = 0
KGU1 241837Z 29016KT 26/M03 A2999 RMK A01 T02581033  RH  014%=      5-min Rain = 0
KGU1 241838Z 29016KT 26/M03 A2999 RMK A01 T02601034  RH  014%=      5-min Rain = 0
KGU1 241839Z 29017G22KT 26/M03 A2999 RMK A01 T02581033  RH  014%=      5-min Rain = 0
KGU1 241840Z 30016KT 26/M04 A2999 RMK A01 T02561035  RH  014%=      5-min Rain = 0
KGU1 241841Z 28012KT 26/M04 A2998 RMK A01 T02551036  RH  014%=      5-min Rain = 0
KGU1 241842Z 28012KT 26/M03 A2998 RMK A01 T02551034  RH  015%=      5-min Rain = 0
KGU1 241843Z 28009KT 26/M03 A2998 RMK A01 T02571032  RH  015%=      5-min Rain = 0
KGU1 241844Z 29009KT 26/M03 A2998 RMK A01 T02601030  RH  015%=      5-min Rain = 0
KGU1 241845Z 31011KT 26/M03 A2999 RMK A01 T02641033  RH  014%=      5-min Rain = 0
KGU1 241846Z 31008KT 26/M04 A2998 RMK A01 T02581035  RH  014%=      5-min Rain = 0
KGU1 241847Z 30004KT 26/M04 A2998 RMK A01 T02571035  RH  014%=      5-min Rain = 0
KGU1 241848Z 27006KT 26/M03 A2998 RMK A01 T02591033  RH  014%=      5-min Rain = 0
KGU1 241849Z 29008KT 26/M03 A2998 RMK A01 T02641033  RH  014%=      5-min Rain = 0
KGU1 241850Z 27010KT 27/M03 A2998 RMK A01 T02671033  RH  014%=      5-min Rain = 0
KGU1 241851Z 24003KT 27/M03 A2998 RMK A01 T02691032  RH  014%=      5-min Rain = 0
KGU1 241852Z 31004KT 27/M03 A2998 RMK A01 T02731031  RH  013%=      5-min Rain = 0
KGU1 241853Z 29009KT 27/M03 A2998 RMK A01 T02741031  RH  013%=      5-min Rain = 0
KGU1 241854Z 23008G15KT 27/M03 A2998 RMK A01 T02721032  RH  013%=      5-min Rain = 0
KGU1 241855Z 20004G11KT 27/M03 A2998 RMK A01 T02721030  RH  014%=      5-min Rain = 0
KGU1 241856Z 23010G16KT 27/M03 A2998 RMK A01 T02731034  RH  013%=      5-min Rain = 0
KGU1 241857Z 23013KT 27/M04 A2997 RMK A01 T02681036  RH  013%=      5-min Rain = 0
KGU1 241858Z 26009G14KT 27/M04 A2998 RMK A01 T02651037  RH  013%=      5-min Rain = 0
KGU1 241859Z 30010G19KT 27/M03 A2998 RMK A01 T02661034  RH  014%=      5-min Rain = 0
KGU1 241900Z 29009G14KT 27/M04 A2998 RMK A01 T02651039  RH  013%=      5-min Rain = 0
KGU1 241901Z 31006KT 26/M04 A2998 RMK A01 T02591038  RH  014%=      5-min Rain = 0
KGU1 241902Z 33006G11KT 26/M04 A2998 RMK A01 T02591035  RH  014%=      5-min Rain = 0
KGU1 241903Z 17008KT 26/M03 A2997 RMK A01 T02621033  RH  014%=      5-min Rain = 0
KGU1 241904Z 19005KT 26/M03 A2997 RMK A01 T02641034  RH  014%=      5-min Rain = 0
KGU1 241905Z 20010KT 26/M03 A2997 RMK A01 T02641032  RH  014%=      5-min Rain = 0
KGU1 241906Z 21009KT 26/M03 A2997 RMK A01 T02641033  RH  014%=      5-min Rain = 0
KGU1 241907Z 25010G16KT 27/M03 A2997 RMK A01 T02661032  RH  014%=      5-min Rain = 0
KGU1 241908Z 23014KT 27/M03 A2997 RMK A01 T02661033  RH  014%=      5-min Rain = 0
KGU1 241909Z 21014G20KT 27/M03 A2997 RMK A01 T02651034  RH  014%=      5-min Rain = 0
KGU1 241910Z 20016KT 26/M04 A2997 RMK A01 T02641037  RH  014%=      5-min Rain = 0
KGU1 241911Z 23013KT 26/M04 A2997 RMK A01 T02621038  RH  014%=      5-min Rain = 0
KGU1 241912Z 22011G17KT 26/M04 A2997 RMK A01 T02641038  RH  014%=      5-min Rain = 0
KGU1 241913Z 21009KT 26/M04 A2997 RMK A01 T02631036  RH  014%=      5-min Rain = 0
KGU1 241914Z 23008G13KT 26/M04 A2997 RMK A01 T02641035  RH  014%=      5-min Rain = 0
KGU1 241915Z 29011G17KT 27/M04 A2997 RMK A01 T02651035  RH  014%=      5-min Rain = 0
KGU1 241916Z 30013KT 27/M04 A2998 RMK A01 T02651036  RH  014%=      5-min Rain = 0
KGU1 241917Z 29013G18KT 27/M04 A2998 RMK A01 T02661036  RH  013%=      5-min Rain = 0
KGU1 241918Z 30008G14KT 27/M04 A2997 RMK A01 T02671036  RH  013%=      5-min Rain = 0
KGU1 241919Z 31014KT 27/M04 A2997 RMK A01 T02661039  RH  013%=      5-min Rain = 0
KGU1 241920Z 31012KT 26/M04 A2997 RMK A01 T02611041  RH  013%=      5-min Rain = 0
KGU1 241921Z 31010KT 26/M04 A2997 RMK A01 T02621039  RH  014%=      5-min Rain = 0
KGU1 241922Z 32010G15KT 27/M04 A2997 RMK A01 T02651039  RH  013%=      5-min Rain = 0
KGU1 241923Z 28011KT 27/M04 A2996 RMK A01 T02671039  RH  013%=      5-min Rain = 0
KGU1 241924Z 27010KT 27/M04 A2996 RMK A01 T02701040  RH  013%=      5-min Rain = 0
KGU1 241925Z 28011G16KT 27/M04 A2996 RMK A01 T02711041  RH  013%=      5-min Rain = 0
KGU1 241926Z 25013KT 26/M05 A2996 RMK A01 T02641045  RH  013%=      5-min Rain = 0
KGU1 241927Z 23007KT 26/M05 A2996 RMK A01 T02601047  RH  013%=      5-min Rain = 0
KGU1 241928Z 29006KT 26/M05 A2996 RMK A01 T02581046  RH  013%=      5-min Rain = 0
KGU1 241929Z 27005KT 26/M04 A2996 RMK A01 T02571043  RH  014%=      5-min Rain = 0
KGU1 241930Z 26010KT 26/M04 A2996 RMK A01 T02611041  RH  013%=      5-min Rain = 0
KGU1 241931Z 24009KT 27/M04 A2996 RMK A01 T02651042  RH  013%=      5-min Rain = 0
KGU1 241932Z 24007KT 27/M04 A2996 RMK A01 T02661040  RH  013%=      5-min Rain = 0
KGU1 241933Z 26008KT 27/M04 A2996 RMK A01 T02661042  RH  013%=      5-min Rain = 0
KGU1 241934Z 20006G13KT 26/M04 A2995 RMK A01 T02641041  RH  013%=      5-min Rain = 0
KGU1 241935Z 21010G16KT 27/M04 A2995 RMK A01 T02671042  RH  013%=      5-min Rain = 0
KGU1 241936Z 26009KT 27/M04 A2995 RMK A01 T02661040  RH  013%=      5-min Rain = 0
KGU1 241937Z 26010KT 27/M04 A2995 RMK A01 T02681041  RH  013%=      5-min Rain = 0
KGU1 241938Z 26006KT 27/M04 A2995 RMK A01 T02681041  RH  013%=      5-min Rain = 0
KGU1 241939Z 22009KT 27/M04 A2995 RMK A01 T02711042  RH  013%=      5-min Rain = 0
KGU1 241940Z 22011KT 27/M04 A2995 RMK A01 T02701042  RH  013%=      5-min Rain = 0
KGU1 241941Z 23017G23KT 27/M05 A2995 RMK A01 T02731045  RH  012%=      5-min Rain = 0
KGU1 241942Z 23012G22KT 27/M05 A2995 RMK A01 T02661049  RH  012%=      5-min Rain = 0
KGU1 241943Z 23013G18KT 26/M05 A2995 RMK A01 T02611052  RH  012%=      5-min Rain = 0
KGU1 241944Z 22012KT 27/M05 A2995 RMK A01 T02651052  RH  012%=      5-min Rain = 0
KGU1 241945Z 22016G22KT 27/M05 A2995 RMK A01 T02681053  RH  012%=      5-min Rain = 0
KGU1 241946Z 22015KT 27/M05 A2995 RMK A01 T02671053  RH  012%=      5-min Rain = 0
KGU1 241947Z 27015KT 27/M05 A2995 RMK A01 T02651050  RH  012%=      5-min Rain = 0
KGU1 241948Z 25014KT 27/M05 A2995 RMK A01 T02651052  RH  012%=      5-min Rain = 0
KGU1 241949Z 22016G22KT 27/M06 A2995 RMK A01 T02671057  RH  011%=      5-min Rain = 0
KGU1 241950Z 23013KT 27/M06 A2995 RMK A01 T02661061  RH  011%=      5-min Rain = 0
KGU1 241951Z 24012KT 26/M06 A2995 RMK A01 T02641063  RH  011%=      5-min Rain = 0
KGU1 241952Z 22011G16KT 26/M06 A2995 RMK A01 T02641059  RH  011%=      5-min Rain = 0
KGU1 241953Z 22011G16KT 27/M06 A2995 RMK A01 T02691058  RH  011%=      5-min Rain = 0
KGU1 241954Z 24018KT 27/M06 A2994 RMK A01 T02721060  RH  011%=      5-min Rain = 0
KGU1 241955Z 24015KT 27/M06 A2995 RMK A01 T02681061  RH  011%=      5-min Rain = 0
KGU1 241956Z 24011KT 26/M06 A2995 RMK A01 T02631062  RH  011%=      5-min Rain = 0
KGU1 241957Z 24009KT 26/M06 A2995 RMK A01 T02641062  RH  011%=      5-min Rain = 0
KGU1 241958Z 23012G17KT 27/M06 A2995 RMK A01 T02681062  RH  011%=      5-min Rain = 0
KGU1 241959Z 25012KT 27/M06 A2995 RMK A01 T02691062  RH  011%=      5-min Rain = 0
KGU1 242000Z 20012G18KT 27/M06 A2994 RMK A01 T02681061  RH  011%=      5-min Rain = 0
KGU1 242001Z 22015G23KT 27/M06 A2994 RMK A01 T02681060  RH  011%=      5-min Rain = 0
KGU1 242002Z 20015KT 27/M06 A2994 RMK A01 T02671060  RH  011%=      5-min Rain = 0
KGU1 242003Z 24015G20KT 27/M06 A2994 RMK A01 T02661060  RH  011%=      5-min Rain = 0
KGU1 242004Z 21014KT 27/M06 A2994 RMK A01 T02681062  RH  011%=      5-min Rain = 0
KGU1 242005Z 23016G23KT 27/M06 A2994 RMK A01 T02701061  RH  011%=      5-min Rain = 0
KGU1 242006Z 21014KT 27/M06 A2994 RMK A01 T02681062  RH  011%=      5-min Rain = 0
KGU1 242007Z 20008KT 26/M06 A2994 RMK A01 T02631063  RH  011%=      5-min Rain = 0
KGU1 242008Z 23011KT 26/M06 A2994 RMK A01 T02611060  RH  012%=      5-min Rain = 0
KGU1 242009Z 26011G16KT 27/M06 A2994 RMK A01 T02651058  RH  012%=      5-min Rain = 0
KGU1 242010Z 22013KT 27/M06 A2995 RMK A01 T02691060  RH  011%=      5-min Rain = 0
KGU1 242011Z 23010G15KT 27/M07 A2995 RMK A01 T02691066  RH  011%=      5-min Rain = 0
KGU1 242012Z 24006KT 27/M07 A2994 RMK A01 T02661068  RH  011%=      5-min Rain = 0
KGU1 242013Z 26012KT 27/M07 A2994 RMK A01 T02651065  RH  011%=      5-min Rain = 0
KGU1 242014Z 24013G19KT 27/M06 A2994 RMK A01 T02661063  RH  011%=      5-min Rain = 0
KGU1 242015Z 24011G16KT 27/M06 A2994 RMK A01 T02651062  RH  011%=      5-min Rain = 0
KGU1 242016Z 24014G20KT 27/M06 A2994 RMK A01 T02651063  RH  011%=      5-min Rain = 0
KGU1 242017Z 22015G22KT 27/M06 A2994 RMK A01 T02691064  RH  011%=      5-min Rain = 0
KGU1 242018Z 22011G16KT 27/M07 A2994 RMK A01 T02681069  RH  010%=      5-min Rain = 0
KGU1 242019Z 24015KT 27/M07 A2994 RMK A01 T02671068  RH  011%=      5-min Rain = 0
KGU1 242020Z 24014G21KT 27/M07 A2994 RMK A01 T02671065  RH  011%=      5-min Rain = 0
KGU1 242021Z 23014KT 27/M06 A2994 RMK A01 T02711064  RH  011%=      5-min Rain = 0
KGU1 242022Z 24012KT 27/M06 A2994 RMK A01 T02711063  RH  011%=      5-min Rain = 0
KGU1 242023Z 25012KT 27/M06 A2994 RMK A01 T02701064  RH  011%=      5-min Rain = 0
KGU1 242024Z 23007KT 27/M06 A2994 RMK A01 T02681062  RH  011%=      5-min Rain = 0
KGU1 242025Z 20009KT 27/M06 A2994 RMK A01 T02691061  RH  011%=      5-min Rain = 0
KGU1 242026Z 22011KT 27/M06 A2994 RMK A01 T02691062  RH  011%=      5-min Rain = 0
KGU1 242027Z 25017G22KT 27/M06 A2994 RMK A01 T02701062  RH  011%=      5-min Rain = 0
KGU1 242028Z 23010G15KT 27/M06 A2994 RMK A01 T02661064  RH  011%=      5-min Rain = 0
KGU1 242029Z 23015KT 27/M06 A2994 RMK A01 T02661061  RH  011%=      5-min Rain = 0
KGU1 242030Z 24013KT 27/M06 A2994 RMK A01 T02671063  RH  011%=      5-min Rain = 0
KGU1 242031Z 23015G21KT 27/M06 A2994 RMK A01 T02681061  RH  011%=      5-min Rain = 0
KGU1 242032Z 24014KT 27/M06 A2994 RMK A01 T02661063  RH  011%=      5-min Rain = 0
KGU1 242033Z 23013G18KT 27/M06 A2994 RMK A01 T02651060  RH  011%=      5-min Rain = 0
KGU1 242034Z 23014KT 27/M06 A2994 RMK A01 T02681057  RH  011%=      5-min Rain = 0
KGU1 242035Z 22011KT 27/M06 A2994 RMK A01 T02681055  RH  012%=      5-min Rain = 0
KGU1 242036Z 21013KT 27/M06 A2994 RMK A01 T02681056  RH  011%=      5-min Rain = 0
KGU1 242037Z 21014G20KT 27/M06 A2993 RMK A01 T02671056  RH  012%=      5-min Rain = 0
KGU1 242038Z 21013G19KT 27/M06 A2993 RMK A01 T02681056  RH  011%=      5-min Rain = 0
KGU1 242039Z 21011G17KT 27/M06 A2994 RMK A01 T02681059  RH  011%=      5-min Rain = 0
KGU1 242040Z 22012KT 27/M06 A2994 RMK A01 T02681056  RH  011%=      5-min Rain = 0
KGU1 242041Z 20009KT 27/M06 A2993 RMK A01 T02661056  RH  012%=      5-min Rain = 0
KGU1 242042Z 23006KT 26/M06 A2993 RMK A01 T02641057  RH  012%=      5-min Rain = 0
KGU1 242043Z 27005KT 27/M06 A2993 RMK A01 T02651059  RH  011%=      5-min Rain = 0
KGU1 242044Z 24006KT 27/M06 A2993 RMK A01 T02651057  RH  012%=      5-min Rain = 0
KGU1 242045Z 20011KT 27/M06 A2993 RMK A01 T02661055  RH  012%=      5-min Rain = 0
KGU1 242046Z 23011G16KT 27/M06 A2993 RMK A01 T02671056  RH  012%=      5-min Rain = 0
KGU1 242047Z 25009G14KT 27/M06 A2993 RMK A01 T02651056  RH  012%=      5-min Rain = 0
KGU1 242048Z 25010KT 27/M05 A2993 RMK A01 T02661052  RH  012%=      5-min Rain = 0
KGU1 242049Z 25009KT 27/M05 A2993 RMK A01 T02681049  RH  012%=      5-min Rain = 0
KGU1 242050Z 21017G23KT 27/M05 A2993 RMK A01 T02671049  RH  012%=      5-min Rain = 0
KGU1 242051Z 22017G22KT 27/M05 A2992 RMK A01 T02671049  RH  012%=      5-min Rain = 0
KGU1 242052Z 24022KT 27/M05 A2992 RMK A01 T02681050  RH  012%=      5-min Rain = 0
KGU1 242053Z 24021KT 27/M05 A2992 RMK A01 T02651053  RH  012%=      5-min Rain = 0
KGU1 242054Z 24018G23KT 26/M05 A2993 RMK A01 T02631053  RH  012%=      5-min Rain = 0
KGU1 242055Z 24016G21KT 26/M05 A2993 RMK A01 T02621052  RH  012%=      5-min Rain = 0
KGU1 242056Z 24017KT 26/M05 A2993 RMK A01 T02631051  RH  012%=      5-min Rain = 0
KGU1 242057Z 24017KT 26/M05 A2993 RMK A01 T02631053  RH  012%=      5-min Rain = 0
KGU1 242058Z 22010G17KT 26/M06 A2993 RMK A01 T02621057  RH  012%=      5-min Rain = 0
KGU1 242059Z 23011G16KT 26/M05 A2993 RMK A01 T02641052  RH  012%=      5-min Rain = 0
KGU1 242100Z 27012KT 27/M05 A2993 RMK A01 T02651053  RH  012%=      5-min Rain = 0
KGU1 242101Z 26010G16KT 26/M05 A2993 RMK A01 T02631054  RH  012%=      5-min Rain = 0
KGU1 242102Z 25013KT 26/M05 A2993 RMK A01 T02631052  RH  012%=      5-min Rain = 0
KGU1 242103Z 23013G20KT 26/M05 A2993 RMK A01 T02611050  RH  013%=      5-min Rain = 0
KGU1 242104Z 23015G21KT 26/M05 A2993 RMK A01 T02611049  RH  013%=      5-min Rain = 0
KGU1 242105Z 22015G23KT 26/M05 A2993 RMK A01 T02581050  RH  013%=      5-min Rain = 0
KGU1 242106Z 25006G15KT 26/M05 A2993 RMK A01 T02581053  RH  012%=      5-min Rain = 0
KGU1 242107Z 24002KT 26/M05 A2993 RMK A01 T02571052  RH  013%=      5-min Rain = 0
KGU1 242108Z 23007G12KT 26/M05 A2993 RMK A01 T02591051  RH  013%=      5-min Rain = 0
KGU1 242109Z 22009KT 26/M05 A2993 RMK A01 T02611051  RH  012%=      5-min Rain = 0
KGU1 242110Z 23007KT 26/M05 A2993 RMK A01 T02611050  RH  013%=      5-min Rain = 0
KGU1 242111Z 24003KT 26/M05 A2992 RMK A01 T02591051  RH  013%=      5-min Rain = 0
KGU1 242112Z 24008G15KT 26/M05 A2992 RMK A01 T02631047  RH  013%=      5-min Rain = 0
KGU1 242113Z 24008KT 27/M05 A2992 RMK A01 T02701047  RH  012%=      5-min Rain = 0
KGU1 242114Z 21013G19KT 27/M05 A2992 RMK A01 T02741046  RH  012%=      5-min Rain = 0
KGU1 242115Z 21016G21KT 27/M05 A2992 RMK A01 T02721049  RH  012%=      5-min Rain = 0
KGU1 242116Z 22015G21KT 27/M05 A2992 RMK A01 T02671050  RH  012%=      5-min Rain = 0
KGU1 242117Z 26013KT 26/M05 A2992 RMK A01 T02641051  RH  012%=      5-min Rain = 0
KGU1 242118Z 23012G19KT 26/M05 A2992 RMK A01 T02641051  RH  012%=      5-min Rain = 0
KGU1 242119Z 22012G18KT 27/M05 A2992 RMK A01 T02661050  RH  012%=      5-min Rain = 0
KGU1 242120Z 20015G20KT 27/M05 A2992 RMK A01 T02681053  RH  012%=      5-min Rain = 0
KGU1 242121Z 21016G22KT 27/M06 A2992 RMK A01 T02681055  RH  012%=      5-min Rain = 0
KGU1 242122Z 22015KT 27/M05 A2992 RMK A01 T02651053  RH  012%=      5-min Rain = 0
KGU1 242123Z 23015G20KT 27/M06 A2992 RMK A01 T02671056  RH  012%=      5-min Rain = 0
KGU1 242124Z 23012KT 27/M06 A2992 RMK A01 T02671060  RH  011%=      5-min Rain = 0
KGU1 242125Z 20012KT 27/M06 A2992 RMK A01 T02671060  RH  011%=      5-min Rain = 0
KGU1 242126Z 21010G16KT 27/M06 A2992 RMK A01 T02661061  RH  011%=      5-min Rain = 0
KGU1 242127Z 23016KT 27/M06 A2992 RMK A01 T02671057  RH  011%=      5-min Rain = 0
KGU1 242128Z 24015G21KT 27/M06 A2992 RMK A01 T02671057  RH  011%=      5-min Rain = 0
KGU1 242129Z 23013G21KT 27/M06 A2992 RMK A01 T02671056  RH  012%=      5-min Rain = 0
KGU1 242130Z 23018G24KT 27/M06 A2992 RMK A01 T02691057  RH  011%=      5-min Rain = 0
KGU1 242131Z 23015G21KT 27/M06 A2992 RMK A01 T02661058  RH  011%=      5-min Rain = 0
KGU1 242132Z 22015G22KT 27/M06 A2992 RMK A01 T02651058  RH  011%=      5-min Rain = 0
KGU1 242133Z 22017G23KT 27/M06 A2991 RMK A01 T02651059  RH  011%=      5-min Rain = 0
KGU1 242134Z 22016G21KT 26/M06 A2991 RMK A01 T02631055  RH  012%=      5-min Rain = 0
KGU1 242135Z 22018G23KT 26/M05 A2991 RMK A01 T02621052  RH  012%=      5-min Rain = 0
KGU1 242136Z 21016G21KT 26/M05 A2992 RMK A01 T02631051  RH  012%=      5-min Rain = 0
KGU1 242137Z 22015KT 26/M05 A2991 RMK A01 T02621052  RH  012%=      5-min Rain = 0
KGU1 242138Z 21015KT 26/M05 A2991 RMK A01 T02631052  RH  012%=      5-min Rain = 0
KGU1 242139Z 23019G25KT 26/M05 A2991 RMK A01 T02641051  RH  012%=      5-min Rain = 0
KGU1 242140Z 23018G23KT 26/M05 A2991 RMK A01 T02621050  RH  012%=      5-min Rain = 0
KGU1 242141Z 27012G17KT 26/M05 A2991 RMK A01 T02601051  RH  012%=      5-min Rain = 0
KGU1 242142Z 24015KT 26/M05 A2991 RMK A01 T02601051  RH  013%=      5-min Rain = 0
KGU1 242143Z 22018KT 26/M05 A2991 RMK A01 T02611052  RH  012%=      5-min Rain = 0
KGU1 242144Z 22020G28KT 26/M05 A2991 RMK A01 T02611052  RH  012%=      5-min Rain = 0
KGU1 242145Z 23021G26KT 26/M05 A2991 RMK A01 T02601051  RH  012%=      5-min Rain = 0
KGU1 242146Z 23017KT 26/M05 A2991 RMK A01 T02601051  RH  012%=      5-min Rain = 0
KGU1 242147Z 24014G20KT 26/M05 A2991 RMK A01 T02611051  RH  012%=      5-min Rain = 0
KGU1 242148Z 24014G20KT 26/M05 A2991 RMK A01 T02601052  RH  012%=      5-min Rain = 0
KGU1 242149Z 25014G19KT 26/M05 A2991 RMK A01 T02581051  RH  013%=      5-min Rain = 0
KGU1 242150Z 30006G13KT 26/M05 A2991 RMK A01 T02571051  RH  013%=      5-min Rain = 0
KGU1 242151Z 29004KT 26/M05 A2991 RMK A01 T02561050  RH  013%=      5-min Rain = 0
KGU1 242152Z 22010KT 26/M05 A2991 RMK A01 T02601048  RH  013%=      5-min Rain = 0
KGU1 242153Z 20009KT 26/M05 A2991 RMK A01 T02621048  RH  013%=      5-min Rain = 0
KGU1 242154Z 22008G14KT 26/M05 A2991 RMK A01 T02621045  RH  013%=      5-min Rain = 0
KGU1 242155Z 24010G17KT 27/M04 A2991 RMK A01 T02661042  RH  013%=      5-min Rain = 0
KGU1 242156Z 25011G16KT 26/M04 A2991 RMK A01 T02641043  RH  013%=      5-min Rain = 0
KGU1 242157Z 24003KT 26/M04 A2991 RMK A01 T02631041  RH  013%=      5-min Rain = 0
KGU1 242158Z 26008G21KT 27/M04 A2991 RMK A01 T02661040  RH  013%=      5-min Rain = 0
KGU1 242159Z 25008G13KT 27/M04 A2991 RMK A01 T02701043  RH  013%=      5-min Rain = 0
KGU1 242200Z 24013G19KT 27/M04 A2991 RMK A01 T02701043  RH  013%=      5-min Rain = 0
KGU1 242201Z 22014G20KT 27/M04 A2991 RMK A01 T02651041  RH  013%=      5-min Rain = 0
KGU1 242202Z 23018G26KT 26/M04 A299 RMK A01 T02621043  RH  013%=      5-min Rain = 0
KGU1 242203Z 24015G20KT 27/M04 A2991 RMK A01 T02651044  RH  013%=      5-min Rain = 0
KGU1 242204Z 24011KT 26/M05 A2991 RMK A01 T02641045  RH  013%=      5-min Rain = 0
KGU1 242205Z 23011KT 26/M05 A2991 RMK A01 T02641045  RH  013%=      5-min Rain = 0
KGU1 242206Z 22008G15KT 26/M05 A299 RMK A01 T02641046  RH  013%=      5-min Rain = 0
KGU1 242207Z 24013KT 26/M05 A299 RMK A01 T02641046  RH  013%=      5-min Rain = 0
KGU1 242208Z 25010KT 26/M05 A299 RMK A01 T02621048  RH  013%=      5-min Rain = 0
KGU1 242209Z 25013G20KT 26/M05 A299 RMK A01 T02621048  RH  013%=      5-min Rain = 0
KGU1 242210Z 26008KT 26/M05 A2991 RMK A01 T02611049  RH  013%=      5-min Rain = 0
KGU1 242211Z 26008KT 26/M05 A2991 RMK A01 T02631048  RH  013%=      5-min Rain = 0
KGU1 242212Z 24004KT 27/M06 A2991 RMK A01 T02651055  RH  012%=      5-min Rain = 0
KGU1 242213Z 20005G10KT 26/M05 A299 RMK A01 T02641049  RH  012%=      5-min Rain = 0
KGU1 242214Z 28006G11KT 26/M05 A2991 RMK A01 T02621048  RH  013%=      5-min Rain = 0
KGU1 242215Z 23012KT 27/M05 A299 RMK A01 T02651048  RH  012%=      5-min Rain = 0
KGU1 242216Z 20008KT 26/M05 A299 RMK A01 T02611050  RH  012%=      5-min Rain = 0
KGU1 242217Z 17008G14KT 26/M05 A299 RMK A01 T02631046  RH  013%=      5-min Rain = 0
KGU1 242218Z 20017G25KT 27/M04 A2989 RMK A01 T02661044  RH  013%=      5-min Rain = 0
KGU1 242219Z 22008G19KT 26/M05 A299 RMK A01 T02611046  RH  013%=      5-min Rain = 0
KGU1 242220Z 22007KT 26/M04 A299 RMK A01 T02601044  RH  013%=      5-min Rain = 0
KGU1 242221Z 21007G12KT 26/M04 A299 RMK A01 T02621044  RH  013%=      5-min Rain = 0
KGU1 242222Z 21009G14KT 26/M04 A299 RMK A01 T02641044  RH  013%=      5-min Rain = 0
KGU1 242223Z 22010KT 26/M04 A299 RMK A01 T02641044  RH  013%=      5-min Rain = 0
KGU1 242224Z 24008KT 26/M04 A299 RMK A01 T02631043  RH  013%=      5-min Rain = 0
KGU1 242225Z 24007G12KT 26/M04 A299 RMK A01 T02631044  RH  013%=      5-min Rain = 0
KGU1 242226Z 25006KT 26/M05 A299 RMK A01 T02631045  RH  013%=      5-min Rain = 0
KGU1 242227Z 22006G15KT 26/M04 A2989 RMK A01 T02641044  RH  013%=      5-min Rain = 0
KGU1 242228Z 19012KT 27/M05 A2989 RMK A01 T02661045  RH  013%=      5-min Rain = 0
KGU1 242229Z 21014G21KT 26/M05 A2989 RMK A01 T02641047  RH  013%=      5-min Rain = 0
KGU1 242230Z 20014KT 26/M05 A2989 RMK A01 T02631047  RH  013%=      5-min Rain = 0
KGU1 242231Z 17005KT 26/M05 A2989 RMK A01 T02601046  RH  013%=      5-min Rain = 0
KGU1 242232Z 22009G14KT 26/M05 A2989 RMK A01 T02601045  RH  013%=      5-min Rain = 0
KGU1 242233Z 21012G17KT 26/M05 A2989 RMK A01 T02631046  RH  013%=      5-min Rain = 0
KGU1 242234Z 23010KT 26/M05 A2989 RMK A01 T02631047  RH  013%=      5-min Rain = 0
KGU1 242235Z 26006KT 27/M05 A2989 RMK A01 T02651047  RH  012%=      5-min Rain = 0
KGU1 242236Z 24010G15KT 27/M05 A2989 RMK A01 T02681046  RH  012%=      5-min Rain = 0
KGU1 242237Z 24012G17KT 27/M05 A2988 RMK A01 T02671047  RH  012%=      5-min Rain = 0
KGU1 242238Z 26008G13KT 27/M05 A2989 RMK A01 T02661048  RH  012%=      5-min Rain = 0
KGU1 242239Z 24010KT 26/M05 A2989 RMK A01 T02641048  RH  012%=      5-min Rain = 0
KGU1 242240Z 21007KT 26/M04 A2989 RMK A01 T02621043  RH  013%=      5-min Rain = 0
KGU1 242241Z 22010KT 26/M04 A2989 RMK A01 T02621043  RH  013%=      5-min Rain = 0
KGU1 242242Z 19007G13KT 26/M04 A2988 RMK A01 T02621043  RH  013%=      5-min Rain = 0
KGU1 242243Z 32009KT 26/M04 A2989 RMK A01 T02641042  RH  013%=      5-min Rain = 0
KGU1 242244Z 30011KT 26/M04 A2989 RMK A01 T02641041  RH  013%=      5-min Rain = 0
KGU1 242245Z 27004G10KT 26/M04 A2988 RMK A01 T02621041  RH  013%=      5-min Rain = 0
KGU1 242246Z 28003KT 26/M04 A2988 RMK A01 T02611040  RH  014%=      5-min Rain = 0
KGU1 242247Z 29009G17KT 26/M04 A2988 RMK A01 T02631038  RH  014%=      5-min Rain = 0
KGU1 242248Z 23009G16KT 26/M04 A2988 RMK A01 T02641040  RH  013%=      5-min Rain = 0
KGU1 242249Z 25005KT 26/M04 A2988 RMK A01 T02641040  RH  013%=      5-min Rain = 0
KGU1 242250Z 21005KT 26/M04 A2988 RMK A01 T02641041  RH  013%=      5-min Rain = 0
KGU1 242251Z 20013G19KT 26/M04 A2988 RMK A01 T02621039  RH  014%=      5-min Rain = 0
KGU1 242252Z 21010G17KT 26/M04 A2988 RMK A01 T02631040  RH  013%=      5-min Rain = 0
KGU1 242253Z 23010KT 26/M04 A2988 RMK A01 T02611040  RH  014%=      5-min Rain = 0
KGU1 242254Z 25012KT 26/M04 A2988 RMK A01 T02591040  RH  014%=      5-min Rain = 0
KGU1 242255Z 24009KT 26/M04 A2988 RMK A01 T02571040  RH  014%=      5-min Rain = 0
KGU1 242256Z 24014G20KT 26/M04 A2988 RMK A01 T02561039  RH  014%=      5-min Rain = 0
KGU1 242257Z 24012G17KT 26/M04 A2988 RMK A01 T02571038  RH  014%=      5-min Rain = 0
KGU1 242258Z 22009G18KT 26/M04 A2988 RMK A01 T02591038  RH  014%=      5-min Rain = 0
KGU1 242259Z 21014G21KT 26/M04 A2988 RMK A01 T02611039  RH  014%=      5-min Rain = 0
KGU1 242300Z 23014KT 26/M04 A2988 RMK A01 T02601039  RH  014%=      5-min Rain = 0
KGU1 242301Z 22009KT 26/M04 A2988 RMK A01 T02611039  RH  014%=      5-min Rain = 0
KGU1 242302Z 22005KT 26/M04 A2988 RMK A01 T02591041  RH  014%=      5-min Rain = 0
KGU1 242303Z 25004KT 26/M04 A2988 RMK A01 T02581040  RH  014%=      5-min Rain = 0
KGU1 242304Z 20008G14KT 26/M04 A2987 RMK A01 T02591040  RH  014%=      5-min Rain = 0
KGU1 242305Z 23011G24KT 26/M04 A2987 RMK A01 T02591040  RH  014%=      5-min Rain = 0
KGU1 242306Z 26021G30KT 26/M04 A2987 RMK A01 T02601043  RH  013%=      5-min Rain = 0
KGU1 242307Z 28014KT 26/M04 A2988 RMK A01 T02571044  RH  013%=      5-min Rain = 0
KGU1 242308Z 30015KT 26/M05 A2988 RMK A01 T02561047  RH  013%=      5-min Rain = 0
KGU1 242309Z 32012KT 26/M05 A2987 RMK A01 T02551049  RH  013%=      5-min Rain = 0
KGU1 242310Z 31017G31KT 26/M05 A2988 RMK A01 T02551045  RH  013%=      5-min Rain = 0
KGU1 242311Z 26011KT 25/M04 A2987 RMK A01 T02541044  RH  014%=      5-min Rain = 0
KGU1 242312Z 26009KT 26/M04 A2987 RMK A01 T02551043  RH  014%=      5-min Rain = 0
KGU1 242313Z 26008G13KT 26/M04 A2987 RMK A01 T02551044  RH  014%=      5-min Rain = 0
KGU1 242314Z 29009KT 26/M04 A2987 RMK A01 T02581041  RH  014%=      5-min Rain = 0
KGU1 242315Z 30009KT 26/M04 A2987 RMK A01 T02621041  RH  013%=      5-min Rain = 0
KGU1 242316Z 19008KT 26/M04 A2987 RMK A01 T02601039  RH  014%=      5-min Rain = 0
KGU1 242317Z 22012G17KT 26/M04 A2987 RMK A01 T02581038  RH  014%=      5-min Rain = 0
KGU1 242318Z 22014G20KT 26/M04 A2987 RMK A01 T02601041  RH  014%=      5-min Rain = 0
KGU1 242319Z 21009KT 26/M04 A2987 RMK A01 T02571043  RH  014%=      5-min Rain = 0
KGU1 242320Z 20010KT 26/M04 A2987 RMK A01 T02551043  RH  014%=      5-min Rain = 0
KGU1 242321Z 24014KT 26/M04 A2987 RMK A01 T02561042  RH  014%=      5-min Rain = 0
KGU1 242322Z 24012G19KT 26/M04 A2987 RMK A01 T02581043  RH  013%=      5-min Rain = 0
KGU1 242323Z 22004KT 26/M05 A2987 RMK A01 T02561045  RH  013%=      5-min Rain = 0
KGU1 242324Z 25005KT 26/M04 A2987 RMK A01 T02571044  RH  013%=      5-min Rain = 0
KGU1 242325Z 25008G13KT 26/M05 A2987 RMK A01 T02591045  RH  013%=      5-min Rain = 0
KGU1 242326Z 27008KT 26/M05 A2987 RMK A01 T02571045  RH  013%=      5-min Rain = 0
KGU1 242327Z 28006KT 26/M05 A2987 RMK A01 T02581045  RH  013%=      5-min Rain = 0
KGU1 242328Z 30010G16KT 26/M04 A2987 RMK A01 T02591044  RH  013%=      5-min Rain = 0
KGU1 242329Z 30013G18KT 26/M04 A2987 RMK A01 T02611044  RH  013%=      5-min Rain = 0
KGU1 242330Z 29013KT 26/M04 A2986 RMK A01 T02601044  RH  013%=      5-min Rain = 0
KGU1 242331Z 26010KT 26/M04 A2987 RMK A01 T02601044  RH  013%=      5-min Rain = 0
KGU1 242332Z 26009KT 26/M05 A2987 RMK A01 T02621045  RH  013%=      5-min Rain = 0
KGU1 242333Z 24007G16KT 26/M05 A2986 RMK A01 T02621045  RH  013%=      5-min Rain = 0
KGU1 242334Z 21012KT 26/M05 A2986 RMK A01 T02621045  RH  013%=      5-min Rain = 0
KGU1 242335Z 27009KT 26/M05 A2986 RMK A01 T02591045  RH  013%=      5-min Rain = 0
KGU1 242336Z 24005G10KT 26/M05 A2986 RMK A01 T02591045  RH  013%=      5-min Rain = 0
KGU1 242337Z 25010G17KT 26/M04 A2986 RMK A01 T02581043  RH  013%=      5-min Rain = 0
KGU1 242338Z 25014G19KT 26/M04 A2986 RMK A01 T02561042  RH  014%=      5-min Rain = 0
KGU1 242339Z 26012G17KT 26/M04 A2986 RMK A01 T02571040  RH  014%=      5-min Rain = 0
KGU1 242340Z 28007KT 26/M04 A2986 RMK A01 T02571039  RH  014%=      5-min Rain = 0
KGU1 242341Z 29008G13KT 26/M04 A2986 RMK A01 T02571039  RH  014%=      5-min Rain = 0
KGU1 242342Z 28014KT 26/M04 A2986 RMK A01 T02571038  RH  014%=      5-min Rain = 0
KGU1 242343Z 29015KT 26/M04 A2986 RMK A01 T02581037  RH  014%=      5-min Rain = 0
KGU1 242344Z 28017G23KT 26/M04 A2986 RMK A01 T02581037  RH  014%=      5-min Rain = 0
KGU1 242345Z 29018G26KT 26/M04 A2986 RMK A01 T02571038  RH  014%=      5-min Rain = 0
KGU1 242346Z 30015G20KT 26/M04 A2985 RMK A01 T02551038  RH  014%=      5-min Rain = 0
KGU1 242347Z 30011G17KT 26/M04 A2985 RMK A01 T02551038  RH  014%=      5-min Rain = 0
KGU1 242348Z 29012G18KT 26/M04 A2985 RMK A01 T02561038  RH  014%=      5-min Rain = 0
KGU1 242349Z 29017KT 26/M04 A2985 RMK A01 T02571039  RH  014%=      5-min Rain = 0
KGU1 242350Z 29019G26KT 26/M04 A2985 RMK A01 T02571040  RH  014%=      5-min Rain = 0
KGU1 242351Z 29018KT 26/M04 A2985 RMK A01 T02551037  RH  014%=      5-min Rain = 0
KGU1 242352Z 30018G24KT 26/M04 A2985 RMK A01 T02551035  RH  015%=      5-min Rain = 0
KGU1 242353Z 29021G30KT 25/M04 A2984 RMK A01 T02541035  RH  015%=      5-min Rain = 0
KGU1 242354Z 25017G23KT 26/M04 A2985 RMK A01 T02571035  RH  014%=      5-min Rain = 0
KGU1 242355Z 25017G24KT 26/M03 A2985 RMK A01 T02561034  RH  015%=      5-min Rain = 0
KGU1 242356Z 26018G25KT 25/M03 A2985 RMK A01 T02541034  RH  015%=      5-min Rain = 0
KGU1 242357Z 27017G23KT 25/M04 A2985 RMK A01 T02531036  RH  015%=      5-min Rain = 0
KGU1 242358Z 28012G18KT 25/M04 A2985 RMK A01 T02511038  RH  015%=      5-min Rain = 0
KGU1 242359Z 25008KT 25/M04 A2985 RMK A01 T02521037  RH  015%=      5-min Rain = 0
KGU1 250000Z 26009G14KT 25/M04 A2985 RMK A01 T02531036  RH  015%=      5-min Rain = 0
KGU1 250001Z 28013G19KT 25/M03 A2985 RMK A01 T02541034  RH  015%=      5-min Rain = 0
KGU1 250002Z 29015KT 25/M03 A2985 RMK A01 T02541033  RH  015%=      5-min Rain = 0
KGU1 250003Z 29017KT 25/M03 A2985 RMK A01 T02531033  RH  015%=      5-min Rain = 0
KGU1 250004Z 28015KT 25/M03 A2985 RMK A01 T02521034  RH  015%=      5-min Rain = 0
KGU1 250005Z 27015G20KT 25/M03 A2985 RMK A01 T02541032  RH  015%=      5-min Rain = 0
KGU1 250006Z 28013G20KT 25/M03 A2985 RMK A01 T02541031  RH  015%=      5-min Rain = 0
KGU1 250007Z 25017KT 25/M03 A2985 RMK A01 T02531031  RH  015%=      5-min Rain = 0
KGU1 250008Z 28016G21KT 25/M03 A2985 RMK A01 T02511033  RH  015%=      5-min Rain = 0
KGU1 250009Z 30020G28KT 25/M03 A2985 RMK A01 T02501034  RH  015%=      5-min Rain = 0
KGU1 250010Z 28016G22KT 25/M03 A2985 RMK A01 T02511033  RH  015%=      5-min Rain = 0
KGU1 250011Z 27011KT 25/M03 A2985 RMK A01 T02541031  RH  015%=      5-min Rain = 0
KGU1 250012Z 29014G26KT 26/M03 A2985 RMK A01 T02551031  RH  015%=      5-min Rain = 0
KGU1 250013Z 28023G28KT 25/M03 A2985 RMK A01 T02541031  RH  015%=      5-min Rain = 0
KGU1 250014Z 27019G31KT 25/M03 A2986 RMK A01 T02531032  RH  015%=      5-min Rain = 0
KGU1 250015Z 27017KT 25/M03 A2985 RMK A01 T02511031  RH  015%=      5-min Rain = 0
KGU1 250016Z 27015G21KT 25/M03 A2985 RMK A01 T02511032  RH  015%=      5-min Rain = 0
KGU1 250017Z 28009G15KT 25/M03 A2985 RMK A01 T02511032  RH  015%=      5-min Rain = 0
KGU1 250018Z 24011G17KT 25/M03 A2985 RMK A01 T02501032  RH  015%=      5-min Rain = 0
KGU1 250019Z 25019G30KT 25/M03 A2985 RMK A01 T02481032  RH  015%=      5-min Rain = 0
KGU1 250020Z 24015G21KT 25/M03 A2985 RMK A01 T02471034  RH  015%=      5-min Rain = 0
KGU1 250021Z 26012G18KT 25/M03 A2985 RMK A01 T02471034  RH  015%=      5-min Rain = 0
KGU1 250022Z 24024G29KT 25/M03 A2984 RMK A01 T02481033  RH  015%=      5-min Rain = 0
KGU1 250023Z 23018G30KT 25/M04 A2984 RMK A01 T02471035  RH  015%=      5-min Rain = 0
KGU1 250024Z 23015G22KT 25/M04 A2984 RMK A01 T02471035  RH  015%=      5-min Rain = 0
KGU1 250025Z 25017G25KT 25/M04 A2985 RMK A01 T02471035  RH  015%=      5-min Rain = 0
KGU1 250026Z 25014KT 25/M04 A2985 RMK A01 T02481035  RH  015%=      5-min Rain = 0
KGU1 250027Z 27011KT 25/M03 A2985 RMK A01 T02491034  RH  015%=      5-min Rain = 0
KGU1 250028Z 28011KT 25/M03 A2985 RMK A01 T02511032  RH  015%=      5-min Rain = 0
KGU1 250029Z 28021G32KT 25/M03 A2986 RMK A01 T02521033  RH  015%=      5-min Rain = 0
KGU1 250030Z 28019G25KT 25/M03 A2986 RMK A01 T02491033  RH  015%=      5-min Rain = 0
KGU1 250031Z 24017G24KT 25/M03 A2985 RMK A01 T02481032  RH  016%=      5-min Rain = 0
KGU1 250032Z 22015G21KT 25/M03 A2985 RMK A01 T02471032  RH  016%=      5-min Rain = 0
KGU1 250033Z 27010G17KT 25/M03 A2985 RMK A01 T02471033  RH  016%=      5-min Rain = 0
KGU1 250034Z 28009KT 25/M03 A2986 RMK A01 T02481032  RH  016%=      5-min Rain = 0
KGU1 250035Z 27008KT 25/M03 A2985 RMK A01 T02481031  RH  016%=      5-min Rain = 0
KGU1 250036Z 27009KT 25/M03 A2986 RMK A01 T02491031  RH  016%=      5-min Rain = 0
KGU1 250037Z 29016G23KT 25/M03 A2986 RMK A01 T02491032  RH  015%=      5-min Rain = 0
KGU1 250038Z 28014G19KT 25/M03 A2986 RMK A01 T02491034  RH  015%=      5-min Rain = 0
KGU1 250039Z 30015G23KT 25/M04 A2986 RMK A01 T02481035  RH  015%=      5-min Rain = 0
KGU1 250040Z 31021G30KT 25/M04 A2986 RMK A01 T02481035  RH  015%=      5-min Rain = 0
KGU1 250041Z 30024G29KT 25/M04 A2986 RMK A01 T02481035  RH  015%=      5-min Rain = 0
KGU1 250042Z 30021G28KT 25/M04 A2986 RMK A01 T02471035  RH  015%=      5-min Rain = 0
KGU1 250043Z 26017KT 25/M04 A2986 RMK A01 T02471035  RH  015%=      5-min Rain = 0
KGU1 250044Z 24010G17KT 25/M04 A2986 RMK A01 T02471035  RH  015%=      5-min Rain = 0
KGU1 250045Z 28009KT 25/M04 A2986 RMK A01 T02471036  RH  015%=      5-min Rain = 0
KGU1 250046Z 26013KT 25/M04 A2986 RMK A01 T02471035  RH  015%=      5-min Rain = 0
KGU1 250047Z 24012KT 25/M04 A2986 RMK A01 T02471035  RH  015%=      5-min Rain = 0
KGU1 250048Z 24011G16KT 25/M04 A2986 RMK A01 T02461035  RH  015%=      5-min Rain = 0
KGU1 250049Z 22012G20KT 25/M04 A2986 RMK A01 T02461035  RH  015%=      5-min Rain = 0
KGU1 250050Z 21010G16KT 25/M03 A2986 RMK A01 T02451034  RH  016%=      5-min Rain = 0
KGU1 250051Z 25009G15KT 25/M03 A2986 RMK A01 T02451034  RH  016%=      5-min Rain = 0
KGU1 250052Z 24009KT 25/M03 A2986 RMK A01 T02451033  RH  016%=      5-min Rain = 0
KGU1 250053Z 25006KT 25/M03 A2987 RMK A01 T02471032  RH  016%=      5-min Rain = 0
KGU1 250054Z 31006KT 25/M03 A2987 RMK A01 T02471032  RH  016%=      5-min Rain = 0
KGU1 250055Z 23003KT 25/M03 A2986 RMK A01 T02471031  RH  016%=      5-min Rain = 0
KGU1 250056Z 22011KT 25/M03 A2987 RMK A01 T02461031  RH  016%=      5-min Rain = 0
KGU1 250057Z 19010KT 25/M03 A2986 RMK A01 T02451030  RH  016%=      5-min Rain = 0
KGU1 250058Z 18011KT 24/M03 A2986 RMK A01 T02431029  RH  016%=      5-min Rain = 0
KGU1 250059Z 20010KT 24/M03 A2986 RMK A01 T02431029  RH  016%=      5-min Rain = 0
KGU1 250100Z 23009KT 24/M03 A2986 RMK A01 T02431029  RH  016%=      5-min Rain = 0
KGU1 250101Z 24007G13KT 24/M03 A2987 RMK A01 T02431029  RH  016%=      5-min Rain = 0
KGU1 250102Z 19004KT 24/M03 A2986 RMK A01 T02441028  RH  016%=      5-min Rain = 0
KGU1 250103Z 24006KT 24/M03 A2986 RMK A01 T02441028  RH  016%=      5-min Rain = 0
KGU1 250104Z 25008KT 24/M03 A2987 RMK A01 T02441028  RH  016%=      5-min Rain = 0
KGU1 250105Z 17004G10KT 24/M03 A2986 RMK A01 T02441028  RH  016%=      5-min Rain = 0
KGU1 250106Z 19006KT 24/M03 A2986 RMK A01 T02431028  RH  016%=      5-min Rain = 0
KGU1 250107Z 24003KT 24/M03 A2986 RMK A01 T02431027  RH  017%=      5-min Rain = 0
KGU1 250108Z 25009G18KT 24/M03 A2986 RMK A01 T02441027  RH  017%=      5-min Rain = 0
KGU1 250109Z 25014KT 24/M03 A2986 RMK A01 T02441026  RH  017%=      5-min Rain = 0
KGU1 250110Z 26009G15KT 24/M03 A2986 RMK A01 T02431026  RH  017%=      5-min Rain = 0
KGU1 250111Z 23012G17KT 24/M03 A2986 RMK A01 T02431026  RH  017%=      5-min Rain = 0
KGU1 250112Z 26009G19KT 24/M03 A2986 RMK A01 T02421028  RH  017%=      5-min Rain = 0
KGU1 250113Z 21006KT 24/M03 A2986 RMK A01 T02421028  RH  017%=      5-min Rain = 0
KGU1 250114Z 27005KT 24/M03 A2986 RMK A01 T02411028  RH  017%=      5-min Rain = 0
KGU1 250115Z 28002KT 24/M03 A2986 RMK A01 T02401029  RH  017%=      5-min Rain = 0
KGU1 250116Z 28004KT 24/M03 A2986 RMK A01 T02401028  RH  017%=      5-min Rain = 0
KGU1 250117Z 28009KT 24/M03 A2986 RMK A01 T02391028  RH  017%=      5-min Rain = 0
KGU1 250118Z 25005G16KT 24/M03 A2986 RMK A01 T02391028  RH  017%=      5-min Rain = 0
KGU1 250119Z 26010G15KT 24/M03 A2986 RMK A01 T02391029  RH  017%=      5-min Rain = 0
KGU1 250120Z 29012KT 24/M03 A2986 RMK A01 T02391029  RH  017%=      5-min Rain = 0
KGU1 250121Z 29008G14KT 24/M03 A2986 RMK A01 T02381029  RH  017%=      5-min Rain = 0
KGU1 250122Z 29005G10KT 24/M03 A2986 RMK A01 T02391029  RH  017%=      5-min Rain = 0
KGU1 250123Z 28006KT 24/M03 A2986 RMK A01 T02391030  RH  017%=      5-min Rain = 0
KGU1 250124Z 29004KT 24/M03 A2987 RMK A01 T02381030  RH  017%=      5-min Rain = 0
KGU1 250125Z 29007KT 24/M03 A2987 RMK A01 T02381030  RH  017%=      5-min Rain = 0
KGU1 250126Z 22001KT 24/M03 A2986 RMK A01 T02371030  RH  017%=      5-min Rain = 0
KGU1 250127Z 24002KT 24/M03 A2986 RMK A01 T02371030  RH  017%=      5-min Rain = 0
KGU1 250128Z 20003KT 24/M03 A2986 RMK A01 T02371031  RH  017%=      5-min Rain = 0
KGU1 250129Z 31002KT 24/M03 A2986 RMK A01 T02361031  RH  017%=      5-min Rain = 0
KGU1 250130Z 34003KT 24/M03 A2986 RMK A01 T02361030  RH  017%=      5-min Rain = 0
KGU1 250131Z 29003KT 24/M03 A2987 RMK A01 T02351030  RH  017%=      5-min Rain = 0
KGU1 250132Z 26009G15KT 23/M03 A2987 RMK A01 T02341032  RH  017%=      5-min Rain = 0
KGU1 250133Z 22013G18KT 24/M03 A2987 RMK A01 T02351034  RH  017%=      5-min Rain = 0
KGU1 250134Z 23009G16KT 24/M04 A2987 RMK A01 T02361036  RH  016%=      5-min Rain = 0
KGU1 250135Z 22009G17KT 24/M04 A2987 RMK A01 T02371035  RH  016%=      5-min Rain = 0
KGU1 250136Z 16007KT 24/M04 A2986 RMK A01 T02371036  RH  016%=      5-min Rain = 0
KGU1 250137Z 17010KT 24/M04 A2986 RMK A01 T02371036  RH  016%=      5-min Rain = 0
KGU1 250138Z 18006KT 24/M04 A2986 RMK A01 T02361036  RH  016%=      5-min Rain = 0
KGU1 250139Z 23004KT 24/M04 A2987 RMK A01 T02361036  RH  016%=      5-min Rain = 0
KGU1 250140Z 26006KT 24/M04 A2987 RMK A01 T02351036  RH  016%=      5-min Rain = 0
KGU1 250141Z 22003KT 24/M04 A2987 RMK A01 T02351036  RH  016%=      5-min Rain = 0
KGU1 250142Z 19004KT 24/M04 A2987 RMK A01 T02351037  RH  016%=      5-min Rain = 0
KGU1 250143Z 18002KT 24/M04 A2987 RMK A01 T02351037  RH  016%=      5-min Rain = 0
KGU1 250144Z 28002KT 24/M04 A2987 RMK A01 T02351037  RH  016%=      5-min Rain = 0
KGU1 250145Z 28005KT 23/M04 A2987 RMK A01 T02341036  RH  016%=      5-min Rain = 0
KGU1 250146Z 24005KT 23/M04 A2987 RMK A01 T02321035  RH  017%=      5-min Rain = 0
KGU1 250147Z 19006KT 23/M04 A2987 RMK A01 T02321036  RH  017%=      5-min Rain = 0
KGU1 250148Z 19007KT 23/M04 A2987 RMK A01 T02321036  RH  016%=      5-min Rain = 0
KGU1 250149Z 21009KT 23/M04 A2987 RMK A01 T02321037  RH  016%=      5-min Rain = 0
KGU1 250150Z 19005KT 23/M04 A2987 RMK A01 T02331038  RH  016%=      5-min Rain = 0
KGU1 250151Z 17010G16KT 23/M04 A2987 RMK A01 T02331037  RH  016%=      5-min Rain = 0
KGU1 250152Z 20009KT 23/M04 A2987 RMK A01 T02331038  RH  016%=      5-min Rain = 0
KGU1 250153Z 25007KT 23/M04 A2987 RMK A01 T02341037  RH  016%=      5-min Rain = 0
KGU1 250154Z 32008G14KT 23/M04 A2988 RMK A01 T02341037  RH  016%=      5-min Rain = 0
KGU1 250155Z 32007KT 23/M04 A2988 RMK A01 T02331037  RH  016%=      5-min Rain = 0
KGU1 250156Z 27003KT 23/M04 A2988 RMK A01 T02341037  RH  016%=      5-min Rain = 0
KGU1 250157Z 27006KT 23/M04 A2988 RMK A01 T02341037  RH  016%=      5-min Rain = 0
KGU1 250158Z 26004KT 23/M04 A2988 RMK A01 T02341038  RH  016%=      5-min Rain = 0
KGU1 250159Z 30003G10KT 24/M04 A2988 RMK A01 T02351038  RH  016%=      5-min Rain = 0
KGU1 250200Z 30009KT 24/M04 A2988 RMK A01 T02351038  RH  016%=      5-min Rain = 0
KGU1 250201Z 26008KT 24/M04 A2988 RMK A01 T02351037  RH  016%=      5-min Rain = 0
KGU1 250202Z 27007KT 24/M04 A2988 RMK A01 T02351037  RH  016%=      5-min Rain = 0
KGU1 250203Z 28006KT 23/M04 A2988 RMK A01 T02341038  RH  016%=      5-min Rain = 0
KGU1 250204Z 28004KT 23/M04 A2988 RMK A01 T02331037  RH  016%=      5-min Rain = 0
KGU1 250205Z 30005KT 23/M04 A2988 RMK A01 T02321038  RH  016%=      5-min Rain = 0
KGU1 250206Z 21003KT 23/M04 A2988 RMK A01 T02311038  RH  016%=      5-min Rain = 0
KGU1 250207Z 18003KT 23/M04 A2988 RMK A01 T02301038  RH  017%=      5-min Rain = 0
KGU1 250208Z 14001KT 23/M04 A2988 RMK A01 T02301038  RH  017%=      5-min Rain = 0
KGU1 250209Z 01003KT 23/M04 A2988 RMK A01 T02291038  RH  017%=      5-min Rain = 0
KGU1 250210Z 31003KT 23/M04 A2988 RMK A01 T02291038  RH  017%=      5-min Rain = 0
KGU1 250211Z 27006KT 23/M04 A2988 RMK A01 T02301038  RH  017%=      5-min Rain = 0
KGU1 250212Z 28004KT 23/M04 A2988 RMK A01 T02311038  RH  016%=      5-min Rain = 0
KGU1 250213Z 31001KT 23/M04 A2988 RMK A01 T02321038  RH  016%=      5-min Rain = 0
KGU1 250214Z 27003G10KT 23/M04 A2989 RMK A01 T02321038  RH  016%=      5-min Rain = 0
KGU1 250215Z 20008KT 23/M04 A2988 RMK A01 T02321037  RH  016%=      5-min Rain = 0
KGU1 250216Z 19005KT 23/M04 A2988 RMK A01 T02321037  RH  016%=      5-min Rain = 0
KGU1 250217Z 18002KT 23/M04 A2989 RMK A01 T02321037  RH  016%=      5-min Rain = 0
KGU1 250218Z 16002KT 23/M04 A2989 RMK A01 T02321037  RH  016%=      5-min Rain = 0
KGU1 250219Z 13002KT 23/M04 A2988 RMK A01 T02321037  RH  016%=      5-min Rain = 0
KGU1 250220Z 14006KT 23/M04 A2988 RMK A01 T02321037  RH  016%=      5-min Rain = 0
KGU1 250221Z 18007KT 23/M04 A2988 RMK A01 T02331036  RH  016%=      5-min Rain = 0
KGU1 250222Z 22010KT 23/M04 A2989 RMK A01 T02321036  RH  017%=      5-min Rain = 0
KGU1 250223Z 26011KT 23/M04 A2989 RMK A01 T02321036  RH  017%=      5-min Rain = 0
KGU1 250224Z 26008KT 23/M04 A2989 RMK A01 T02321036  RH  017%=      5-min Rain = 0
KGU1 250225Z 26007KT 23/M04 A2989 RMK A01 T02331036  RH  016%=      5-min Rain = 0
KGU1 250226Z 25002KT 23/M04 A2989 RMK A01 T02331036  RH  016%=      5-min Rain = 0
KGU1 250227Z 35001KT 23/M04 A2989 RMK A01 T02341036  RH  016%=      5-min Rain = 0
KGU1 250228Z 16003KT 23/M04 A2989 RMK A01 T02341037  RH  016%=      5-min Rain = 0
KGU1 250229Z 01000KT 23/M04 A2989 RMK A01 T02331037  RH  016%=      5-min Rain = 0
KGU1 250230Z 01001KT 23/M04 A2989 RMK A01 T02331037  RH  016%=      5-min Rain = 0
KGU1 250231Z 19005G10KT 23/M04 A2989 RMK A01 T02331036  RH  016%=      5-min Rain = 0
KGU1 250232Z 20008KT 23/M04 A2988 RMK A01 T02311036  RH  017%=      5-min Rain = 0
KGU1 250233Z 20007KT 23/M04 A2988 RMK A01 T02311037  RH  017%=      5-min Rain = 0
KGU1 250234Z 24010KT 23/M04 A2989 RMK A01 T02311037  RH  017%=      5-min Rain = 0
KGU1 250235Z 27010G15KT 23/M04 A2989 RMK A01 T02311037  RH  017%=      5-min Rain = 0
KGU1 250236Z 32002KT 23/M04 A2989 RMK A01 T02321037  RH  016%=      5-min Rain = 0
KGU1 250237Z 22005KT 23/M04 A2989 RMK A01 T02321037  RH  016%=      5-min Rain = 0
KGU1 250238Z 24006KT 23/M04 A2989 RMK A01 T02321037  RH  017%=      5-min Rain = 0
KGU1 250239Z 23004KT 23/M04 A2989 RMK A01 T02311037  RH  017%=      5-min Rain = 0
KGU1 250240Z 24003KT 23/M04 A2989 RMK A01 T02311037  RH  017%=      5-min Rain = 0
KGU1 250241Z 23002KT 23/M04 A2989 RMK A01 T02301037  RH  017%=      5-min Rain = 0
KGU1 250242Z 25001KT 23/M04 A2989 RMK A01 T02291037  RH  017%=      5-min Rain = 0
KGU1 250243Z 31001KT 23/M04 A2989 RMK A01 T02281038  RH  017%=      5-min Rain = 0
KGU1 250244Z 26001KT 23/M04 A2989 RMK A01 T02271038  RH  017%=      5-min Rain = 0
KGU1 250245Z 01002KT 23/M04 A2989 RMK A01 T02271038  RH  017%=      5-min Rain = 0
KGU1 250246Z 10003KT 23/M04 A2989 RMK A01 T02271038  RH  017%=      5-min Rain = 0
KGU1 250247Z 15004KT 23/M04 A2989 RMK A01 T02271038  RH  017%=      5-min Rain = 0
KGU1 250248Z 21003KT 23/M04 A2989 RMK A01 T02271038  RH  017%=      5-min Rain = 0
KGU1 250249Z 23003KT 23/M04 A2989 RMK A01 T02271038  RH  017%=      5-min Rain = 0
KGU1 250250Z 20002KT 23/M04 A2989 RMK A01 T02271038  RH  017%=      5-min Rain = 0
KGU1 250251Z 16003KT 23/M04 A2989 RMK A01 T02271038  RH  017%=      5-min Rain = 0
KGU1 250252Z 16004KT 23/M04 A2989 RMK A01 T02271039  RH  017%=      5-min Rain = 0
KGU1 250253Z 17004KT 23/M04 A2989 RMK A01 T02261041  RH  017%=      5-min Rain = 0
KGU1 250254Z 18004KT 23/M04 A2989 RMK A01 T02271040  RH  017%=      5-min Rain = 0
KGU1 250255Z 18003KT 23/M04 A2989 RMK A01 T02271040  RH  017%=      5-min Rain = 0
KGU1 250256Z 25002KT 23/M04 A2989 RMK A01 T02271040  RH  017%=      5-min Rain = 0
KGU1 250257Z 25007G12KT 23/M04 A2989 RMK A01 T02261040  RH  017%=      5-min Rain = 0
KGU1 250258Z 27005KT 22/M04 A2989 RMK A01 T02231040  RH  017%=      5-min Rain = 0
KGU1 250259Z 23003KT 22/M04 A2988 RMK A01 T02231042  RH  017%=      5-min Rain = 0
KGU1 250300Z 26004KT 23/M04 A2988 RMK A01 T02251041  RH  017%=      5-min Rain = 0
KGU1 250301Z 29005KT 22/M04 A2988 RMK A01 T02241042  RH  017%=      5-min Rain = 0
KGU1 250302Z 24003KT 22/M04 A2988 RMK A01 T02221043  RH  017%=      5-min Rain = 0
KGU1 250303Z 19006KT 22/M04 A2988 RMK A01 T02221043  RH  017%=      5-min Rain = 0
KGU1 250304Z 19004KT 22/M04 A2988 RMK A01 T02241043  RH  017%=      5-min Rain = 0
KGU1 250305Z 28003KT 22/M04 A2988 RMK A01 T02241043  RH  016%=      5-min Rain = 0
KGU1 250306Z 30004KT 22/M04 A2988 RMK A01 T02241044  RH  016%=      5-min Rain = 0
KGU1 250307Z 28006KT 22/M05 A2988 RMK A01 T02241045  RH  016%=      5-min Rain = 0
KGU1 250308Z 26008KT 23/M05 A2988 RMK A01 T02251045  RH  016%=      5-min Rain = 0
KGU1 250309Z 29008KT 23/M05 A2988 RMK A01 T02261045  RH  016%=      5-min Rain = 0
KGU1 250310Z 28007KT 23/M05 A2988 RMK A01 T02251045  RH  016%=      5-min Rain = 0
KGU1 250311Z 28009KT 23/M05 A2988 RMK A01 T02251046  RH  016%=      5-min Rain = 0
KGU1 250312Z 24006KT 23/M05 A2988 RMK A01 T02261045  RH  016%=      5-min Rain = 0
KGU1 250313Z 27007KT 23/M05 A2988 RMK A01 T02271047  RH  016%=      5-min Rain = 0
KGU1 250314Z 21003KT 23/M05 A2988 RMK A01 T02281046  RH  016%=      5-min Rain = 0
KGU1 250315Z 34001KT 23/M05 A2988 RMK A01 T02281046  RH  016%=      5-min Rain = 0
KGU1 250316Z 29004KT 23/M05 A2988 RMK A01 T02271046  RH  016%=      5-min Rain = 0
KGU1 250317Z 30010KT 23/M05 A2988 RMK A01 T02261046  RH  016%=      5-min Rain = 0
KGU1 250318Z 31015G24KT 23/M05 A2988 RMK A01 T02261046  RH  016%=      5-min Rain = 0
KGU1 250319Z 30012G21KT 23/M05 A2988 RMK A01 T02291046  RH  016%=      5-min Rain = 0
KGU1 250320Z 31006KT 23/M05 A2988 RMK A01 T02321046  RH  015%=      5-min Rain = 0
KGU1 250321Z 29008KT 23/M05 A2988 RMK A01 T02321046  RH  015%=      5-min Rain = 0
KGU1 250322Z 26006KT 23/M05 A2988 RMK A01 T02311046  RH  015%=      5-min Rain = 0
KGU1 250323Z 26010G15KT 23/M05 A2988 RMK A01 T02301046  RH  016%=      5-min Rain = 0
KGU1 250324Z 25006KT 23/M05 A2987 RMK A01 T02291047  RH  015%=      5-min Rain = 0
KGU1 250325Z 28007KT 23/M05 A2988 RMK A01 T02291046  RH  016%=      5-min Rain = 0
KGU1 250326Z 28006G12KT 23/M05 A2988 RMK A01 T02271046  RH  016%=      5-min Rain = 0
KGU1 250327Z 26008KT 23/M05 A2987 RMK A01 T02261046  RH  016%=      5-min Rain = 0
KGU1 250328Z 24004KT 23/M05 A2987 RMK A01 T02261046  RH  016%=      5-min Rain = 0
KGU1 250329Z 29005G10KT 23/M05 A2988 RMK A01 T02261046  RH  016%=      5-min Rain = 0
KGU1 250330Z 28007KT 23/M05 A2988 RMK A01 T02261048  RH  016%=      5-min Rain = 0
KGU1 250331Z 29007KT 23/M05 A2988 RMK A01 T02271048  RH  016%=      5-min Rain = 0
KGU1 250332Z 26006KT 23/M05 A2988 RMK A01 T02281047  RH  016%=      5-min Rain = 0
KGU1 250333Z 24010KT 23/M05 A2988 RMK A01 T02271047  RH  016%=      5-min Rain = 0
KGU1 250334Z 22008KT 23/M05 A2987 RMK A01 T02271047  RH  016%=      5-min Rain = 0
KGU1 250335Z 23009KT 23/M05 A2987 RMK A01 T02271048  RH  016%=      5-min Rain = 0
KGU1 250336Z 25010KT 23/M05 A2987 RMK A01 T02281048  RH  016%=      5-min Rain = 0
KGU1 250337Z 28007KT 23/M05 A2988 RMK A01 T02281048  RH  016%=      5-min Rain = 0
KGU1 250338Z 25007KT 23/M05 A2988 RMK A01 T02271048  RH  016%=      5-min Rain = 0
KGU1 250339Z 29014KT 23/M05 A2988 RMK A01 T02261049  RH  016%=      5-min Rain = 0
KGU1 250340Z 27015G23KT 23/M05 A2987 RMK A01 T02271050  RH  015%=      5-min Rain = 0
KGU1 250341Z 26012KT 23/M05 A2987 RMK A01 T02281050  RH  015%=      5-min Rain = 0
KGU1 250342Z 25009KT 23/M05 A2987 RMK A01 T02291050  RH  015%=      5-min Rain = 0
KGU1 250343Z 26013G18KT 23/M05 A2987 RMK A01 T02281050  RH  015%=      5-min Rain = 0
KGU1 250344Z 27012KT 23/M05 A2987 RMK A01 T02271050  RH  015%=      5-min Rain = 0
KGU1 250345Z 28014G20KT 23/M05 A2987 RMK A01 T02271050  RH  015%=      5-min Rain = 0
KGU1 250346Z 26009KT 23/M05 A2987 RMK A01 T02261051  RH  015%=      5-min Rain = 0
KGU1 250347Z 27011G18KT 22/M05 A2987 RMK A01 T02241051  RH  016%=      5-min Rain = 0
KGU1 250348Z 27011G16KT 22/M05 A2987 RMK A01 T02241050  RH  016%=      5-min Rain = 0
KGU1 250349Z 27011G17KT 22/M05 A2987 RMK A01 T02241051  RH  015%=      5-min Rain = 0
KGU1 250350Z 27013KT 22/M05 A2987 RMK A01 T02241052  RH  015%=      5-min Rain = 0
KGU1 250351Z 28012KT 23/M05 A2987 RMK A01 T02251052  RH  015%=      5-min Rain = 0
KGU1 250352Z 28011KT 22/M05 A2987 RMK A01 T02241052  RH  015%=      5-min Rain = 0
KGU1 250353Z 27010KT 22/M05 A2987 RMK A01 T02231052  RH  016%=      5-min Rain = 0
KGU1 250354Z 26007KT 22/M05 A2986 RMK A01 T02231052  RH  015%=      5-min Rain = 0
KGU1 250355Z 27013G18KT 22/M05 A2986 RMK A01 T02241052  RH  015%=      5-min Rain = 0
KGU1 250356Z 27012KT 23/M05 A2986 RMK A01 T02251052  RH  015%=      5-min Rain = 0
KGU1 250357Z 27016KT 22/M05 A2986 RMK A01 T02241052  RH  015%=      5-min Rain = 0
KGU1 250358Z 26011KT 23/M05 A2986 RMK A01 T02251052  RH  015%=      5-min Rain = 0
KGU1 250359Z 27014KT 23/M05 A2986 RMK A01 T02251052  RH  015%=      5-min Rain = 0
KGU1 250400Z 27010KT 23/M05 A2986 RMK A01 T02251052  RH  015%=      5-min Rain = 0
KGU1 250401Z 25008KT 23/M05 A2986 RMK A01 T02251052  RH  015%=      5-min Rain = 0
KGU1 250402Z 27017G25KT 22/M05 A2986 RMK A01 T02231052  RH  015%=      5-min Rain = 0
KGU1 250403Z 27016G23KT 22/M05 A2986 RMK A01 T02241052  RH  015%=      5-min Rain = 0
KGU1 250404Z 27017KT 23/M05 A2986 RMK A01 T02251052  RH  015%=      5-min Rain = 0
KGU1 250405Z 27013KT 23/M05 A2985 RMK A01 T02261052  RH  015%=      5-min Rain = 0
KGU1 250406Z 27011KT 23/M05 A2986 RMK A01 T02251052  RH  015%=      5-min Rain = 0
KGU1 250407Z 28017KT 23/M05 A2986 RMK A01 T02251052  RH  015%=      5-min Rain = 0
KGU1 250408Z 27016KT 23/M05 A2985 RMK A01 T02251052  RH  015%=      5-min Rain = 0
KGU1 250409Z 28015KT 23/M05 A2986 RMK A01 T02251052  RH  015%=      5-min Rain = 0
KGU1 250410Z 29013KT 23/M05 A2986 RMK A01 T02251053  RH  015%=      5-min Rain = 0
KGU1 250411Z 28009KT 23/M05 A2985 RMK A01 T02251052  RH  015%=      5-min Rain = 0
KGU1 250412Z 26011KT 22/M05 A2986 RMK A01 T02231052  RH  015%=      5-min Rain = 0
KGU1 250413Z 26014KT 22/M05 A2985 RMK A01 T02231052  RH  016%=      5-min Rain = 0
KGU1 250414Z 28015KT 22/M05 A2986 RMK A01 T02241052  RH  015%=      5-min Rain = 0
KGU1 250415Z 29017G24KT 23/M05 A2986 RMK A01 T02251052  RH  015%=      5-min Rain = 0
KGU1 250416Z 28012KT 23/M05 A2986 RMK A01 T02261052  RH  015%=      5-min Rain = 0
KGU1 250417Z 28011KT 23/M05 A2986 RMK A01 T02261052  RH  015%=      5-min Rain = 0
KGU1 250418Z 28010KT 22/M05 A2986 RMK A01 T02241052  RH  015%=      5-min Rain = 0
KGU1 250419Z 29009KT 22/M05 A2986 RMK A01 T02221052  RH  016%=      5-min Rain = 0
KGU1 250420Z 27007KT 22/M05 A2986 RMK A01 T02211052  RH  016%=      5-min Rain = 0
KGU1 250421Z 27009KT 22/M05 A2986 RMK A01 T02211052  RH  016%=      5-min Rain = 0
KGU1 250422Z 28011KT 22/M05 A2986 RMK A01 T02211053  RH  016%=      5-min Rain = 0
KGU1 250423Z 27016KT 22/M05 A2986 RMK A01 T02211053  RH  015%=      5-min Rain = 0
KGU1 250424Z 28017KT 22/M05 A2986 RMK A01 T02231053  RH  015%=      5-min Rain = 0
KGU1 250425Z 27013KT 22/M05 A2986 RMK A01 T02241053  RH  015%=      5-min Rain = 0
KGU1 250426Z 27013KT 22/M05 A2986 RMK A01 T02231054  RH  015%=      5-min Rain = 0
KGU1 250427Z 27015G23KT 22/M05 A2986 RMK A01 T02231054  RH  015%=      5-min Rain = 0
KGU1 250428Z 26019G24KT 22/M05 A2986 RMK A01 T02241054  RH  015%=      5-min Rain = 0
KGU1 250429Z 27016KT 23/M05 A2986 RMK A01 T02251054  RH  015%=      5-min Rain = 0
KGU1 250430Z 27015KT 23/M05 A2986 RMK A01 T02261054  RH  015%=      5-min Rain = 0
KGU1 250431Z 28014G19KT 23/M05 A2986 RMK A01 T02251054  RH  015%=      5-min Rain = 0
KGU1 250432Z 28017KT 23/M05 A2986 RMK A01 T02251054  RH  015%=      5-min Rain = 0
KGU1 250433Z 28019G25KT 23/M05 A2986 RMK A01 T02251054  RH  015%=      5-min Rain = 0
KGU1 250434Z 28018KT 22/M05 A2986 RMK A01 T02241054  RH  015%=      5-min Rain = 0
KGU1 250435Z 27016KT 22/M05 A2986 RMK A01 T02241054  RH  015%=      5-min Rain = 0
KGU1 250436Z 27016KT 22/M05 A2986 RMK A01 T02241054  RH  015%=      5-min Rain = 0
KGU1 250437Z 28013KT 23/M06 A2987 RMK A01 T02251055  RH  015%=      5-min Rain = 0
KGU1 250438Z 27010KT 22/M05 A2986 RMK A01 T02241054  RH  015%=      5-min Rain = 0
KGU1 250439Z 26011KT 22/M06 A2986 RMK A01 T02231055  RH  015%=      5-min Rain = 0
KGU1 250440Z 27013KT 22/M06 A2987 RMK A01 T02221055  RH  015%=      5-min Rain = 0
KGU1 250441Z 27012KT 22/M06 A2987 RMK A01 T02211055  RH  015%=      5-min Rain = 0
KGU1 250442Z 27014KT 22/M06 A2986 RMK A01 T02211056  RH  015%=      5-min Rain = 0
KGU1 250443Z 28016KT 22/M06 A2987 RMK A01 T02211056  RH  015%=      5-min Rain = 0
KGU1 250444Z 27015KT 22/M06 A2987 RMK A01 T02211056  RH  015%=      5-min Rain = 0
KGU1 250445Z 29016KT 22/M06 A2987 RMK A01 T02211056  RH  015%=      5-min Rain = 0
KGU1 250446Z 27012KT 22/M06 A2987 RMK A01 T02211056  RH  015%=      5-min Rain = 0
KGU1 250447Z 28014KT 22/M06 A2987 RMK A01 T02201056  RH  015%=      5-min Rain = 0
KGU1 250448Z 27016G21KT 22/M06 A2987 RMK A01 T02201056  RH  015%=      5-min Rain = 0
KGU1 250449Z 27015KT 22/M06 A2987 RMK A01 T02201056  RH  015%=      5-min Rain = 0
KGU1 250450Z 28012KT 22/M06 A2987 RMK A01 T02201055  RH  015%=      5-min Rain = 0
KGU1 250451Z 28013G18KT 22/M06 A2987 RMK A01 T02191056  RH  015%=      5-min Rain = 0
KGU1 250452Z 28015KT 22/M06 A2987 RMK A01 T02191056  RH  015%=      5-min Rain = 0
KGU1 250453Z 28015KT 22/M06 A2987 RMK A01 T02191056  RH  015%=      5-min Rain = 0
KGU1 250454Z 27014KT 22/M06 A2987 RMK A01 T02181056  RH  015%=      5-min Rain = 0
KGU1 250455Z 27014KT 22/M06 A2986 RMK A01 T02181057  RH  015%=      5-min Rain = 0
KGU1 250456Z 27016KT 22/M06 A2987 RMK A01 T02191058  RH  015%=      5-min Rain = 0
KGU1 250457Z 28013KT 22/M06 A2987 RMK A01 T02191058  RH  015%=      5-min Rain = 0
KGU1 250458Z 28014G19KT 22/M06 A2987 RMK A01 T02191059  RH  015%=      5-min Rain = 0
KGU1 250459Z 27017G24KT 22/M06 A2987 RMK A01 T02181060  RH  015%=      5-min Rain = 0

Page generated in 0.1204 seconds.